Observation data for Lomax on 05/23/2020      Previous  Date  Next       Current Mesonet Observations  Soil Data  Daily Summary Page  Observations in Plain Language
KLO1 230500Z 19012KT 28/16 A298 RMK A01 T02800160  RH  048%=      5-min Rain = 0
KLO1 230501Z 18013KT 28/16 A298 RMK A01 T02790161  RH  048%=      5-min Rain = 0
KLO1 230502Z 19012KT 28/16 A298 RMK A01 T02790161  RH  049%=      5-min Rain = 0
KLO1 230503Z 19012KT 28/16 A298 RMK A01 T02790161  RH  049%=      5-min Rain = 0
KLO1 230504Z 19014KT 28/16 A298 RMK A01 T02780161  RH  049%=      5-min Rain = 0
KLO1 230505Z 19014KT 28/16 A298 RMK A01 T02790162  RH  049%=      5-min Rain = 0
KLO1 230506Z 19017KT 28/16 A298 RMK A01 T02790163  RH  049%=      5-min Rain = 0
KLO1 230507Z 18016KT 28/16 A298 RMK A01 T02790164  RH  049%=      5-min Rain = 0
KLO1 230508Z 19015KT 28/16 A298 RMK A01 T02800164  RH  049%=      5-min Rain = 0
KLO1 230509Z 19016KT 28/16 A298 RMK A01 T02800164  RH  049%=      5-min Rain = 0
KLO1 230510Z 19013KT 28/16 A298 RMK A01 T02790164  RH  050%=      5-min Rain = 0
KLO1 230511Z 19014KT 28/16 A298 RMK A01 T02790164  RH  050%=      5-min Rain = 0
KLO1 230512Z 19016KT 28/17 A298 RMK A01 T02790165  RH  050%=      5-min Rain = 0
KLO1 230513Z 19015KT 28/17 A298 RMK A01 T02790165  RH  050%=      5-min Rain = 0
KLO1 230514Z 19014KT 28/17 A298 RMK A01 T02780165  RH  050%=      5-min Rain = 0
KLO1 230515Z 19014KT 28/17 A298 RMK A01 T02780166  RH  050%=      5-min Rain = 0
KLO1 230516Z 19014KT 28/17 A298 RMK A01 T02770166  RH  051%=      5-min Rain = 0
KLO1 230517Z 19016KT 28/17 A298 RMK A01 T02770166  RH  051%=      5-min Rain = 0
KLO1 230518Z 19016KT 28/17 A298 RMK A01 T02770167  RH  051%=      5-min Rain = 0
KLO1 230519Z 19014KT 28/17 A2981 RMK A01 T02770167  RH  051%=      5-min Rain = 0
KLO1 230520Z 18014KT 28/17 A298 RMK A01 T02770167  RH  051%=      5-min Rain = 0
KLO1 230521Z 18013KT 28/17 A2981 RMK A01 T02770167  RH  051%=      5-min Rain = 0
KLO1 230522Z 19014KT 28/17 A2981 RMK A01 T02760167  RH  052%=      5-min Rain = 0
KLO1 230523Z 18015KT 28/17 A2981 RMK A01 T02760168  RH  052%=      5-min Rain = 0
KLO1 230524Z 18014KT 28/17 A2981 RMK A01 T02750168  RH  052%=      5-min Rain = 0
KLO1 230525Z 18015G20KT 28/17 A2981 RMK A01 T02750168  RH  052%=      5-min Rain = 0
KLO1 230526Z 18015KT 28/17 A2981 RMK A01 T02750169  RH  052%=      5-min Rain = 0
KLO1 230527Z 18018KT 28/17 A2981 RMK A01 T02760170  RH  052%=      5-min Rain = 0
KLO1 230528Z 18015KT 28/17 A2981 RMK A01 T02750169  RH  052%=      5-min Rain = 0
KLO1 230529Z 18017KT 28/17 A2981 RMK A01 T02750170  RH  053%=      5-min Rain = 0
KLO1 230530Z 18014KT 28/17 A2981 RMK A01 T02750171  RH  053%=      5-min Rain = 0
KLO1 230531Z 18017KT 27/17 A2981 RMK A01 T02740170  RH  053%=      5-min Rain = 0
KLO1 230532Z 18019KT 27/17 A2981 RMK A01 T02740171  RH  053%=      5-min Rain = 0
KLO1 230533Z 18021KT 28/17 A2981 RMK A01 T02750172  RH  054%=      5-min Rain = 0
KLO1 230534Z 17017KT 28/17 A2981 RMK A01 T02750172  RH  053%=      5-min Rain = 0
KLO1 230535Z 18016KT 28/17 A2981 RMK A01 T02750172  RH  053%=      5-min Rain = 0
KLO1 230536Z 18017KT 28/17 A2981 RMK A01 T02750173  RH  054%=      5-min Rain = 0
KLO1 230537Z 18017KT 27/17 A2981 RMK A01 T02740173  RH  054%=      5-min Rain = 0
KLO1 230538Z 18017KT 27/17 A2981 RMK A01 T02740173  RH  054%=      5-min Rain = 0
KLO1 230539Z 18018KT 27/17 A298 RMK A01 T02730173  RH  054%=      5-min Rain = 0
KLO1 230540Z 18015KT 27/17 A2981 RMK A01 T02730173  RH  054%=      5-min Rain = 0
KLO1 230541Z 18018KT 27/17 A298 RMK A01 T02730174  RH  055%=      5-min Rain = 0
KLO1 230542Z 18016KT 27/17 A298 RMK A01 T02730174  RH  055%=      5-min Rain = 0
KLO1 230543Z 18017KT 27/17 A2981 RMK A01 T02730174  RH  055%=      5-min Rain = 0
KLO1 230544Z 18018KT 27/17 A298 RMK A01 T02720174  RH  055%=      5-min Rain = 0
KLO1 230545Z 18018KT 27/18 A298 RMK A01 T02730175  RH  055%=      5-min Rain = 0
KLO1 230546Z 18019KT 27/18 A298 RMK A01 T02720175  RH  055%=      5-min Rain = 0
KLO1 230547Z 18018KT 27/18 A298 RMK A01 T02720175  RH  055%=      5-min Rain = 0
KLO1 230548Z 18019KT 27/18 A298 RMK A01 T02730175  RH  055%=      5-min Rain = 0
KLO1 230549Z 17017KT 27/18 A298 RMK A01 T02730175  RH  055%=      5-min Rain = 0
KLO1 230550Z 17018KT 27/18 A298 RMK A01 T02720175  RH  055%=      5-min Rain = 0
KLO1 230551Z 18018KT 27/18 A298 RMK A01 T02720176  RH  056%=      5-min Rain = 0
KLO1 230552Z 18018KT 27/18 A298 RMK A01 T02720176  RH  056%=      5-min Rain = 0
KLO1 230553Z 17017KT 27/18 A298 RMK A01 T02720176  RH  056%=      5-min Rain = 0
KLO1 230554Z 18016KT 27/18 A298 RMK A01 T02710175  RH  056%=      5-min Rain = 0
KLO1 230555Z 18016KT 27/18 A298 RMK A01 T02710176  RH  056%=      5-min Rain = 0
KLO1 230556Z 17016KT 27/18 A298 RMK A01 T02700175  RH  056%=      5-min Rain = 0
KLO1 230557Z 17017KT 27/18 A298 RMK A01 T02700176  RH  056%=      5-min Rain = 0
KLO1 230558Z 17016KT 27/18 A298 RMK A01 T02700176  RH  056%=      5-min Rain = 0
KLO1 230559Z 18017KT 27/18 A298 RMK A01 T02700176  RH  056%=      5-min Rain = 0
KLO1 230600Z 17020KT 27/18 A298 RMK A01 T02700176  RH  056%=      5-min Rain = 0
KLO1 230601Z 17017KT 27/18 A298 RMK A01 T02700176  RH  056%=      5-min Rain = 0
KLO1 230602Z 18018KT 27/18 A298 RMK A01 T02700176  RH  056%=      5-min Rain = 0
KLO1 230603Z 17017KT 27/18 A298 RMK A01 T02700176  RH  056%=      5-min Rain = 0
KLO1 230604Z 17016KT 27/18 A298 RMK A01 T02700176  RH  057%=      5-min Rain = 0
KLO1 230605Z 17019G25KT 27/18 A298 RMK A01 T02700176  RH  057%=      5-min Rain = 0
KLO1 230606Z 17016G21KT 27/18 A298 RMK A01 T02700177  RH  057%=      5-min Rain = 0
KLO1 230607Z 17016G23KT 27/18 A298 RMK A01 T02700176  RH  057%=      5-min Rain = 0
KLO1 230608Z 17019KT 27/18 A298 RMK A01 T02690176  RH  057%=      5-min Rain = 0
KLO1 230609Z 17017KT 27/18 A298 RMK A01 T02690177  RH  057%=      5-min Rain = 0
KLO1 230610Z 17015KT 27/18 A298 RMK A01 T02690177  RH  057%=      5-min Rain = 0
KLO1 230611Z 17017KT 27/18 A298 RMK A01 T02690177  RH  057%=      5-min Rain = 0
KLO1 230612Z 17018KT 27/18 A298 RMK A01 T02680177  RH  057%=      5-min Rain = 0
KLO1 230613Z 17018KT 27/18 A298 RMK A01 T02680177  RH  057%=      5-min Rain = 0
KLO1 230614Z 17018KT 27/18 A298 RMK A01 T02680177  RH  057%=      5-min Rain = 0
KLO1 230615Z 17017KT 27/18 A298 RMK A01 T02680177  RH  057%=      5-min Rain = 0
KLO1 230616Z 17018KT 27/18 A298 RMK A01 T02680177  RH  057%=      5-min Rain = 0
KLO1 230617Z 18016KT 27/18 A298 RMK A01 T02680177  RH  057%=      5-min Rain = 0
KLO1 230618Z 17014KT 27/18 A298 RMK A01 T02680177  RH  057%=      5-min Rain = 0
KLO1 230619Z 17016KT 27/18 A298 RMK A01 T02670177  RH  058%=      5-min Rain = 0
KLO1 230620Z 17016KT 27/18 A298 RMK A01 T02670177  RH  058%=      5-min Rain = 0
KLO1 230621Z 17018KT 27/18 A298 RMK A01 T02670177  RH  058%=      5-min Rain = 0
KLO1 230622Z 17018KT 27/18 A298 RMK A01 T02660177  RH  058%=      5-min Rain = 0
KLO1 230623Z 18016KT 27/18 A298 RMK A01 T02670177  RH  058%=      5-min Rain = 0
KLO1 230624Z 17016KT 27/18 A298 RMK A01 T02670177  RH  058%=      5-min Rain = 0
KLO1 230625Z 18017KT 27/18 A298 RMK A01 T02660177  RH  058%=      5-min Rain = 0
KLO1 230626Z 17017KT 27/18 A298 RMK A01 T02660177  RH  058%=      5-min Rain = 0
KLO1 230627Z 18018KT 27/18 A298 RMK A01 T02660177  RH  058%=      5-min Rain = 0
KLO1 230628Z 18018KT 27/18 A298 RMK A01 T02660177  RH  058%=      5-min Rain = 0
KLO1 230629Z 18017KT 27/18 A298 RMK A01 T02670177  RH  058%=      5-min Rain = 0
KLO1 230630Z 18017KT 27/18 A298 RMK A01 T02670177  RH  058%=      5-min Rain = 0
KLO1 230631Z 18017KT 27/18 A298 RMK A01 T02660177  RH  058%=      5-min Rain = 0
KLO1 230632Z 18016KT 27/18 A298 RMK A01 T02660177  RH  058%=      5-min Rain = 0
KLO1 230633Z 18015KT 27/18 A298 RMK A01 T02660177  RH  058%=      5-min Rain = 0
KLO1 230634Z 18016KT 27/18 A298 RMK A01 T02660177  RH  058%=      5-min Rain = 0
KLO1 230635Z 18016KT 27/18 A298 RMK A01 T02650177  RH  058%=      5-min Rain = 0
KLO1 230636Z 18016KT 27/18 A298 RMK A01 T02650177  RH  058%=      5-min Rain = 0
KLO1 230637Z 18016KT 27/18 A298 RMK A01 T02650177  RH  058%=      5-min Rain = 0
KLO1 230638Z 18015KT 27/18 A298 RMK A01 T02650177  RH  058%=      5-min Rain = 0
KLO1 230639Z 18015KT 27/18 A298 RMK A01 T02650177  RH  058%=      5-min Rain = 0
KLO1 230640Z 18018KT 27/18 A298 RMK A01 T02650177  RH  059%=      5-min Rain = 0
KLO1 230641Z 18017KT 27/18 A298 RMK A01 T02650177  RH  058%=      5-min Rain = 0
KLO1 230642Z 18014KT 27/18 A298 RMK A01 T02650177  RH  058%=      5-min Rain = 0
KLO1 230643Z 18015KT 27/18 A2979 RMK A01 T02650177  RH  058%=      5-min Rain = 0
KLO1 230644Z 18016KT 27/18 A2979 RMK A01 T02650177  RH  058%=      5-min Rain = 0
KLO1 230645Z 18016KT 26/18 A2979 RMK A01 T02640177  RH  059%=      5-min Rain = 0
KLO1 230646Z 19014KT 26/18 A2979 RMK A01 T02640177  RH  059%=      5-min Rain = 0
KLO1 230647Z 18017KT 26/18 A2979 RMK A01 T02640177  RH  059%=      5-min Rain = 0
KLO1 230648Z 18016KT 26/18 A2979 RMK A01 T02640177  RH  059%=      5-min Rain = 0
KLO1 230649Z 18016KT 27/18 A2979 RMK A01 T02650177  RH  059%=      5-min Rain = 0
KLO1 230650Z 18017KT 27/18 A2979 RMK A01 T02650177  RH  059%=      5-min Rain = 0
KLO1 230651Z 18015KT 27/18 A2979 RMK A01 T02650177  RH  058%=      5-min Rain = 0
KLO1 230652Z 18014KT 27/18 A2979 RMK A01 T02650177  RH  058%=      5-min Rain = 0
KLO1 230653Z 18015KT 26/18 A2979 RMK A01 T02640177  RH  059%=      5-min Rain = 0
KLO1 230654Z 18016KT 26/18 A2979 RMK A01 T02640177  RH  059%=      5-min Rain = 0
KLO1 230655Z 19016KT 26/18 A2979 RMK A01 T02640177  RH  059%=      5-min Rain = 0
KLO1 230656Z 19015KT 26/18 A2979 RMK A01 T02640176  RH  059%=      5-min Rain = 0
KLO1 230657Z 19014KT 26/18 A2979 RMK A01 T02640176  RH  059%=      5-min Rain = 0
KLO1 230658Z 19013KT 26/18 A298 RMK A01 T02640176  RH  059%=      5-min Rain = 0
KLO1 230659Z 19015KT 26/18 A2979 RMK A01 T02640177  RH  059%=      5-min Rain = 0
KLO1 230700Z 18013KT 26/18 A2979 RMK A01 T02640177  RH  059%=      5-min Rain = 0
KLO1 230701Z 18012KT 26/18 A2979 RMK A01 T02630176  RH  059%=      5-min Rain = 0
KLO1 230702Z 19016KT 26/18 A2979 RMK A01 T02630176  RH  059%=      5-min Rain = 0
KLO1 230703Z 19015KT 26/18 A2979 RMK A01 T02630176  RH  059%=      5-min Rain = 0
KLO1 230704Z 19013KT 26/18 A2979 RMK A01 T02630176  RH  059%=      5-min Rain = 0
KLO1 230705Z 19014KT 26/18 A2979 RMK A01 T02630176  RH  059%=      5-min Rain = 0
KLO1 230706Z 19016G21KT 26/18 A2979 RMK A01 T02630176  RH  059%=      5-min Rain = 0
KLO1 230707Z 19018KT 26/18 A2979 RMK A01 T02630176  RH  059%=      5-min Rain = 0
KLO1 230708Z 19014KT 26/18 A2979 RMK A01 T02630176  RH  058%=      5-min Rain = 0
KLO1 230709Z 19014KT 26/18 A2979 RMK A01 T02630175  RH  059%=      5-min Rain = 0
KLO1 230710Z 19013KT 26/18 A2979 RMK A01 T02620175  RH  059%=      5-min Rain = 0
KLO1 230711Z 18015KT 26/18 A2979 RMK A01 T02620175  RH  059%=      5-min Rain = 0
KLO1 230712Z 18013KT 26/18 A2979 RMK A01 T02620175  RH  059%=      5-min Rain = 0
KLO1 230713Z 18013KT 26/18 A2979 RMK A01 T02620175  RH  059%=      5-min Rain = 0
KLO1 230714Z 18014KT 26/18 A2979 RMK A01 T02610175  RH  059%=      5-min Rain = 0
KLO1 230715Z 18015KT 26/18 A2979 RMK A01 T02610175  RH  059%=      5-min Rain = 0
KLO1 230716Z 18014KT 26/17 A2979 RMK A01 T02610174  RH  059%=      5-min Rain = 0
KLO1 230717Z 18014KT 26/17 A2979 RMK A01 T02620174  RH  059%=      5-min Rain = 0
KLO1 230718Z 18013KT 26/17 A2979 RMK A01 T02610174  RH  059%=      5-min Rain = 0
KLO1 230719Z 18012KT 26/17 A2979 RMK A01 T02610174  RH  059%=      5-min Rain = 0
KLO1 230720Z 18013KT 26/17 A2979 RMK A01 T02600174  RH  059%=      5-min Rain = 0
KLO1 230721Z 18013KT 26/17 A2979 RMK A01 T02600174  RH  059%=      5-min Rain = 0
KLO1 230722Z 18012KT 26/17 A2979 RMK A01 T02600174  RH  059%=      5-min Rain = 0
KLO1 230723Z 18013KT 26/17 A2979 RMK A01 T02590173  RH  059%=      5-min Rain = 0
KLO1 230724Z 18013KT 26/17 A2978 RMK A01 T02590173  RH  059%=      5-min Rain = 0
KLO1 230725Z 18013KT 26/17 A2978 RMK A01 T02590173  RH  059%=      5-min Rain = 0
KLO1 230726Z 18011KT 26/17 A2979 RMK A01 T02590173  RH  059%=      5-min Rain = 0
KLO1 230727Z 18012KT 26/17 A2979 RMK A01 T02590173  RH  059%=      5-min Rain = 0
KLO1 230728Z 18011KT 26/17 A2979 RMK A01 T02580173  RH  059%=      5-min Rain = 0
KLO1 230729Z 18012KT 26/17 A2979 RMK A01 T02580172  RH  059%=      5-min Rain = 0
KLO1 230730Z 18012KT 26/17 A2979 RMK A01 T02580172  RH  059%=      5-min Rain = 0
KLO1 230731Z 19014KT 26/17 A2979 RMK A01 T02580172  RH  059%=      5-min Rain = 0
KLO1 230732Z 18013KT 26/17 A2979 RMK A01 T02580172  RH  059%=      5-min Rain = 0
KLO1 230733Z 18012KT 26/17 A2979 RMK A01 T02580172  RH  059%=      5-min Rain = 0
KLO1 230734Z 18012KT 26/17 A2979 RMK A01 T02580172  RH  059%=      5-min Rain = 0
KLO1 230735Z 18012KT 26/17 A2979 RMK A01 T02580172  RH  059%=      5-min Rain = 0
KLO1 230736Z 18012KT 26/17 A2978 RMK A01 T02570171  RH  059%=      5-min Rain = 0
KLO1 230737Z 18012KT 26/17 A2978 RMK A01 T02570171  RH  059%=      5-min Rain = 0
KLO1 230738Z 18012KT 26/17 A2978 RMK A01 T02570171  RH  059%=      5-min Rain = 0
KLO1 230739Z 18011KT 26/17 A2978 RMK A01 T02570171  RH  059%=      5-min Rain = 0
KLO1 230740Z 18013KT 26/17 A2978 RMK A01 T02570171  RH  059%=      5-min Rain = 0
KLO1 230741Z 18011KT 26/17 A2978 RMK A01 T02570171  RH  059%=      5-min Rain = 0
KLO1 230742Z 18011KT 26/17 A2979 RMK A01 T02570171  RH  059%=      5-min Rain = 0
KLO1 230743Z 18011KT 26/17 A2979 RMK A01 T02560170  RH  059%=      5-min Rain = 0
KLO1 230744Z 18011KT 26/17 A2979 RMK A01 T02560170  RH  059%=      5-min Rain = 0
KLO1 230745Z 18012KT 26/17 A2979 RMK A01 T02550170  RH  059%=      5-min Rain = 0
KLO1 230746Z 18012KT 26/17 A2979 RMK A01 T02550170  RH  059%=      5-min Rain = 0
KLO1 230747Z 18011KT 26/17 A2979 RMK A01 T02560170  RH  059%=      5-min Rain = 0
KLO1 230748Z 18011KT 26/17 A2979 RMK A01 T02560170  RH  059%=      5-min Rain = 0
KLO1 230749Z 18011KT 26/17 A2979 RMK A01 T02550170  RH  059%=      5-min Rain = 0
KLO1 230750Z 18010KT 26/17 A2979 RMK A01 T02550170  RH  059%=      5-min Rain = 0
KLO1 230751Z 18011KT 25/17 A2979 RMK A01 T02540170  RH  059%=      5-min Rain = 0
KLO1 230752Z 18011KT 25/17 A2979 RMK A01 T02540170  RH  059%=      5-min Rain = 0
KLO1 230753Z 18010KT 25/17 A2979 RMK A01 T02540170  RH  060%=      5-min Rain = 0
KLO1 230754Z 18011KT 25/17 A2979 RMK A01 T02530169  RH  060%=      5-min Rain = 0
KLO1 230755Z 18010KT 25/17 A2979 RMK A01 T02530169  RH  060%=      5-min Rain = 0
KLO1 230756Z 18010KT 25/17 A2978 RMK A01 T02530169  RH  060%=      5-min Rain = 0
KLO1 230757Z 18010KT 25/17 A2978 RMK A01 T02530169  RH  060%=      5-min Rain = 0
KLO1 230758Z 18010KT 25/17 A2978 RMK A01 T02520169  RH  060%=      5-min Rain = 0
KLO1 230759Z 18010KT 25/17 A2978 RMK A01 T02520169  RH  060%=      5-min Rain = 0
KLO1 230800Z 18010KT 25/17 A2978 RMK A01 T02510169  RH  060%=      5-min Rain = 0
KLO1 230801Z 18010KT 25/17 A2979 RMK A01 T02510169  RH  060%=      5-min Rain = 0
KLO1 230802Z 18010KT 25/17 A2979 RMK A01 T02510169  RH  061%=      5-min Rain = 0
KLO1 230803Z 18010KT 25/17 A2979 RMK A01 T02500169  RH  061%=      5-min Rain = 0
KLO1 230804Z 18009KT 25/17 A2979 RMK A01 T02500169  RH  061%=      5-min Rain = 0
KLO1 230805Z 18009KT 25/17 A2979 RMK A01 T02490169  RH  061%=      5-min Rain = 0
KLO1 230806Z 18009KT 25/17 A2979 RMK A01 T02490169  RH  061%=      5-min Rain = 0
KLO1 230807Z 18009KT 25/17 A2979 RMK A01 T02480169  RH  061%=      5-min Rain = 0
KLO1 230808Z 18009KT 25/17 A2979 RMK A01 T02480169  RH  061%=      5-min Rain = 0
KLO1 230809Z 18010KT 25/17 A2979 RMK A01 T02480168  RH  061%=      5-min Rain = 0
KLO1 230810Z 18009KT 25/17 A2979 RMK A01 T02480169  RH  061%=      5-min Rain = 0
KLO1 230811Z 18010KT 25/17 A2979 RMK A01 T02480168  RH  061%=      5-min Rain = 0
KLO1 230812Z 18010KT 25/17 A2979 RMK A01 T02480168  RH  061%=      5-min Rain = 0
KLO1 230813Z 18010KT 25/17 A2979 RMK A01 T02480167  RH  061%=      5-min Rain = 0
KLO1 230814Z 18010KT 25/17 A2979 RMK A01 T02480167  RH  061%=      5-min Rain = 0
KLO1 230815Z 18009KT 25/17 A2979 RMK A01 T02480167  RH  061%=      5-min Rain = 0
KLO1 230816Z 18010KT 25/17 A2979 RMK A01 T02480167  RH  061%=      5-min Rain = 0
KLO1 230817Z 18010KT 25/17 A2979 RMK A01 T02480167  RH  060%=      5-min Rain = 0
KLO1 230818Z 18010KT 25/17 A2979 RMK A01 T02480167  RH  060%=      5-min Rain = 0
KLO1 230819Z 18010KT 25/17 A2979 RMK A01 T02480166  RH  060%=      5-min Rain = 0
KLO1 230820Z 18010KT 25/17 A2979 RMK A01 T02480166  RH  060%=      5-min Rain = 0
KLO1 230821Z 18010KT 25/17 A2979 RMK A01 T02490166  RH  060%=      5-min Rain = 0
KLO1 230822Z 18010KT 25/17 A2979 RMK A01 T02490166  RH  060%=      5-min Rain = 0
KLO1 230823Z 18010KT 25/17 A2979 RMK A01 T02480166  RH  060%=      5-min Rain = 0
KLO1 230824Z 18010KT 25/17 A2979 RMK A01 T02480166  RH  060%=      5-min Rain = 0
KLO1 230825Z 18010KT 25/17 A2979 RMK A01 T02480166  RH  060%=      5-min Rain = 0
KLO1 230826Z 18010KT 25/17 A2979 RMK A01 T02470166  RH  060%=      5-min Rain = 0
KLO1 230827Z 18010KT 25/17 A2979 RMK A01 T02470166  RH  060%=      5-min Rain = 0
KLO1 230828Z 18010KT 25/17 A2979 RMK A01 T02470166  RH  060%=      5-min Rain = 0
KLO1 230829Z 18010KT 25/17 A2978 RMK A01 T02470166  RH  061%=      5-min Rain = 0
KLO1 230830Z 18010KT 25/17 A2978 RMK A01 T02460165  RH  061%=      5-min Rain = 0
KLO1 230831Z 18010KT 25/17 A2979 RMK A01 T02470166  RH  061%=      5-min Rain = 0
KLO1 230832Z 18009KT 25/17 A2979 RMK A01 T02460165  RH  061%=      5-min Rain = 0
KLO1 230833Z 18009KT 25/17 A2979 RMK A01 T02460165  RH  061%=      5-min Rain = 0
KLO1 230834Z 18009KT 25/17 A2979 RMK A01 T02460165  RH  061%=      5-min Rain = 0
KLO1 230835Z 18009KT 25/17 A2979 RMK A01 T02460165  RH  061%=      5-min Rain = 0
KLO1 230836Z 18009KT 25/17 A2979 RMK A01 T02450165  RH  061%=      5-min Rain = 0
KLO1 230837Z 17009KT 24/17 A2979 RMK A01 T02440165  RH  061%=      5-min Rain = 0
KLO1 230838Z 17008KT 24/17 A2979 RMK A01 T02440165  RH  061%=      5-min Rain = 0
KLO1 230839Z 17008KT 24/17 A2979 RMK A01 T02440165  RH  062%=      5-min Rain = 0
KLO1 230840Z 17008KT 24/17 A2979 RMK A01 T02430165  RH  062%=      5-min Rain = 0
KLO1 230841Z 17008KT 24/17 A2979 RMK A01 T02420165  RH  062%=      5-min Rain = 0
KLO1 230842Z 17008KT 24/17 A2979 RMK A01 T02420165  RH  062%=      5-min Rain = 0
KLO1 230843Z 17008KT 24/17 A2979 RMK A01 T02420165  RH  062%=      5-min Rain = 0
KLO1 230844Z 17008KT 24/17 A2979 RMK A01 T02410165  RH  062%=      5-min Rain = 0
KLO1 230845Z 17008KT 24/16 A2979 RMK A01 T02410164  RH  062%=      5-min Rain = 0
KLO1 230846Z 17008KT 24/17 A2979 RMK A01 T02410165  RH  062%=      5-min Rain = 0
KLO1 230847Z 17008KT 24/17 A2979 RMK A01 T02410165  RH  062%=      5-min Rain = 0
KLO1 230848Z 16008KT 24/16 A2979 RMK A01 T02400164  RH  062%=      5-min Rain = 0
KLO1 230849Z 16008KT 24/17 A2979 RMK A01 T02410165  RH  063%=      5-min Rain = 0
KLO1 230850Z 16008KT 24/17 A2979 RMK A01 T02400165  RH  063%=      5-min Rain = 0
KLO1 230851Z 16008KT 24/17 A2979 RMK A01 T02400165  RH  063%=      5-min Rain = 0
KLO1 230852Z 17008KT 24/17 A2979 RMK A01 T02400165  RH  063%=      5-min Rain = 0
KLO1 230853Z 16008KT 24/17 A2979 RMK A01 T02400165  RH  063%=      5-min Rain = 0
KLO1 230854Z 17009KT 24/17 A2979 RMK A01 T02400165  RH  063%=      5-min Rain = 0
KLO1 230855Z 16009KT 24/17 A2979 RMK A01 T02400165  RH  063%=      5-min Rain = 0
KLO1 230856Z 16009KT 24/17 A2979 RMK A01 T02400165  RH  063%=      5-min Rain = 0
KLO1 230857Z 16009KT 24/17 A2979 RMK A01 T02410165  RH  062%=      5-min Rain = 0
KLO1 230858Z 16009KT 24/17 A2979 RMK A01 T02410165  RH  062%=      5-min Rain = 0
KLO1 230859Z 16009KT 24/17 A2979 RMK A01 T02410165  RH  062%=      5-min Rain = 0
KLO1 230900Z 16009KT 24/17 A2979 RMK A01 T02420165  RH  062%=      5-min Rain = 0
KLO1 230901Z 16009KT 24/17 A2979 RMK A01 T02420165  RH  062%=      5-min Rain = 0
KLO1 230902Z 16009KT 24/17 A2979 RMK A01 T02420165  RH  062%=      5-min Rain = 0
KLO1 230903Z 16009KT 24/17 A2979 RMK A01 T02420165  RH  062%=      5-min Rain = 0
KLO1 230904Z 16009KT 24/17 A2979 RMK A01 T02410165  RH  062%=      5-min Rain = 0
KLO1 230905Z 15008KT 24/17 A2979 RMK A01 T02410165  RH  063%=      5-min Rain = 0
KLO1 230906Z 15009KT 24/17 A2979 RMK A01 T02400165  RH  063%=      5-min Rain = 0
KLO1 230907Z 15008KT 24/17 A298 RMK A01 T02400165  RH  063%=      5-min Rain = 0
KLO1 230908Z 14008KT 24/17 A298 RMK A01 T02390165  RH  063%=      5-min Rain = 0
KLO1 230909Z 14008KT 24/17 A298 RMK A01 T02380165  RH  064%=      5-min Rain = 0
KLO1 230910Z 14008KT 24/17 A298 RMK A01 T02370165  RH  064%=      5-min Rain = 0
KLO1 230911Z 14008KT 24/16 A298 RMK A01 T02360164  RH  064%=      5-min Rain = 0
KLO1 230912Z 14007KT 24/16 A298 RMK A01 T02350164  RH  064%=      5-min Rain = 0
KLO1 230913Z 13008KT 23/16 A298 RMK A01 T02340163  RH  065%=      5-min Rain = 0
KLO1 230914Z 13008KT 23/16 A298 RMK A01 T02330163  RH  065%=      5-min Rain = 0
KLO1 230915Z 13008KT 23/16 A298 RMK A01 T02330164  RH  065%=      5-min Rain = 0
KLO1 230916Z 13008KT 23/16 A298 RMK A01 T02320164  RH  065%=      5-min Rain = 0
KLO1 230917Z 13007KT 23/16 A298 RMK A01 T02320164  RH  066%=      5-min Rain = 0
KLO1 230918Z 13008KT 23/16 A298 RMK A01 T02310164  RH  066%=      5-min Rain = 0
KLO1 230919Z 13008KT 23/16 A298 RMK A01 T02300163  RH  066%=      5-min Rain = 0
KLO1 230920Z 12008KT 23/16 A298 RMK A01 T02290164  RH  067%=      5-min Rain = 0
KLO1 230921Z 13008KT 23/16 A298 RMK A01 T02290164  RH  067%=      5-min Rain = 0
KLO1 230922Z 13009KT 23/17 A298 RMK A01 T02280165  RH  067%=      5-min Rain = 0
KLO1 230923Z 13008KT 23/17 A298 RMK A01 T02280166  RH  068%=      5-min Rain = 0
KLO1 230924Z 13009KT 23/17 A298 RMK A01 T02290166  RH  068%=      5-min Rain = 0
KLO1 230925Z 13009KT 23/17 A298 RMK A01 T02300167  RH  068%=      5-min Rain = 0
KLO1 230926Z 13009KT 23/17 A298 RMK A01 T02300167  RH  068%=      5-min Rain = 0
KLO1 230927Z 13009KT 23/17 A2981 RMK A01 T02310168  RH  068%=      5-min Rain = 0
KLO1 230928Z 13009KT 23/17 A2981 RMK A01 T02310169  RH  068%=      5-min Rain = 0
KLO1 230929Z 13009KT 23/17 A2981 RMK A01 T02320169  RH  068%=      5-min Rain = 0
KLO1 230930Z 13009KT 23/17 A2981 RMK A01 T02330169  RH  068%=      5-min Rain = 0
KLO1 230931Z 12009KT 23/17 A2981 RMK A01 T02330170  RH  067%=      5-min Rain = 0
KLO1 230932Z 12009KT 23/17 A2981 RMK A01 T02330170  RH  067%=      5-min Rain = 0
KLO1 230933Z 12009KT 23/17 A2981 RMK A01 T02340170  RH  067%=      5-min Rain = 0
KLO1 230934Z 12009KT 23/17 A2981 RMK A01 T02340170  RH  067%=      5-min Rain = 0
KLO1 230935Z 12008KT 23/17 A2981 RMK A01 T02340170  RH  067%=      5-min Rain = 0
KLO1 230936Z 12009KT 23/17 A2981 RMK A01 T02340171  RH  068%=      5-min Rain = 0
KLO1 230937Z 12009KT 23/17 A2981 RMK A01 T02340171  RH  068%=      5-min Rain = 0
KLO1 230938Z 12008KT 23/17 A2981 RMK A01 T02330171  RH  068%=      5-min Rain = 0
KLO1 230939Z 12009KT 23/17 A2981 RMK A01 T02330171  RH  068%=      5-min Rain = 0
KLO1 230940Z 12009KT 23/17 A2981 RMK A01 T02330172  RH  068%=      5-min Rain = 0
KLO1 230941Z 12009KT 23/17 A2981 RMK A01 T02320172  RH  069%=      5-min Rain = 0
KLO1 230942Z 12008KT 23/17 A2981 RMK A01 T02330173  RH  069%=      5-min Rain = 0
KLO1 230943Z 12008KT 23/17 A2981 RMK A01 T02330173  RH  069%=      5-min Rain = 0
KLO1 230944Z 12008KT 23/17 A2981 RMK A01 T02330173  RH  069%=      5-min Rain = 0
KLO1 230945Z 12009KT 23/17 A2981 RMK A01 T02320173  RH  069%=      5-min Rain = 0
KLO1 230946Z 12008KT 23/17 A2981 RMK A01 T02320173  RH  070%=      5-min Rain = 0
KLO1 230947Z 12008KT 23/17 A2981 RMK A01 T02320173  RH  070%=      5-min Rain = 0
KLO1 230948Z 12008KT 23/17 A2981 RMK A01 T02320174  RH  070%=      5-min Rain = 0
KLO1 230949Z 12007KT 23/17 A2981 RMK A01 T02310174  RH  070%=      5-min Rain = 0
KLO1 230950Z 12007KT 23/17 A2981 RMK A01 T02310174  RH  070%=      5-min Rain = 0
KLO1 230951Z 12008KT 23/17 A2981 RMK A01 T02300174  RH  070%=      5-min Rain = 0
KLO1 230952Z 12007KT 23/17 A2981 RMK A01 T02300174  RH  071%=      5-min Rain = 0
KLO1 230953Z 13007KT 23/17 A2981 RMK A01 T02300174  RH  071%=      5-min Rain = 0
KLO1 230954Z 13007KT 23/17 A2981 RMK A01 T02300174  RH  071%=      5-min Rain = 0
KLO1 230955Z 13009KT 23/17 A2981 RMK A01 T02290174  RH  071%=      5-min Rain = 0
KLO1 230956Z 14008KT 23/17 A2981 RMK A01 T02300174  RH  071%=      5-min Rain = 0
KLO1 230957Z 14007KT 23/17 A2981 RMK A01 T02300174  RH  071%=      5-min Rain = 0
KLO1 230958Z 14007KT 23/17 A2981 RMK A01 T02300173  RH  071%=      5-min Rain = 0
KLO1 230959Z 14008KT 23/17 A2981 RMK A01 T02290174  RH  071%=      5-min Rain = 0
KLO1 231000Z 14008KT 23/17 A2981 RMK A01 T02290174  RH  071%=      5-min Rain = 0
KLO1 231001Z 15007KT 23/17 A2981 RMK A01 T02290174  RH  071%=      5-min Rain = 0
KLO1 231002Z 15007KT 23/17 A2981 RMK A01 T02290174  RH  071%=      5-min Rain = 0
KLO1 231003Z 15008KT 23/17 A2981 RMK A01 T02300174  RH  071%=      5-min Rain = 0
KLO1 231004Z 14008KT 23/18 A2981 RMK A01 T02300175  RH  071%=      5-min Rain = 0
KLO1 231005Z 15008KT 23/18 A2981 RMK A01 T02300175  RH  071%=      5-min Rain = 0
KLO1 231006Z 15008KT 23/18 A2981 RMK A01 T02300175  RH  071%=      5-min Rain = 0
KLO1 231007Z 15008KT 23/18 A2981 RMK A01 T02300175  RH  071%=      5-min Rain = 0
KLO1 231008Z 15009KT 23/18 A2982 RMK A01 T02300175  RH  071%=      5-min Rain = 0
KLO1 231009Z 15009KT 23/18 A2982 RMK A01 T02300176  RH  071%=      5-min Rain = 0
KLO1 231010Z 15008KT 23/18 A2982 RMK A01 T02300176  RH  071%=      5-min Rain = 0
KLO1 231011Z 15008KT 23/18 A2982 RMK A01 T02300175  RH  071%=      5-min Rain = 0
KLO1 231012Z 15008KT 23/18 A2982 RMK A01 T02300175  RH  071%=      5-min Rain = 0
KLO1 231013Z 15008KT 23/18 A2982 RMK A01 T02300175  RH  071%=      5-min Rain = 0
KLO1 231014Z 15008KT 23/18 A2982 RMK A01 T02300175  RH  071%=      5-min Rain = 0
KLO1 231015Z 15008KT 23/18 A2982 RMK A01 T02300175  RH  071%=      5-min Rain = 0
KLO1 231016Z 15008KT 23/18 A2982 RMK A01 T02300176  RH  071%=      5-min Rain = 0
KLO1 231017Z 15007KT 23/18 A2982 RMK A01 T02300176  RH  071%=      5-min Rain = 0
KLO1 231018Z 15007KT 23/18 A2982 RMK A01 T02300176  RH  071%=      5-min Rain = 0
KLO1 231019Z 15007KT 23/18 A2982 RMK A01 T02300176  RH  071%=      5-min Rain = 0
KLO1 231020Z 15007KT 23/18 A2982 RMK A01 T02300176  RH  071%=      5-min Rain = 0
KLO1 231021Z 15006KT 23/18 A2982 RMK A01 T02300175  RH  071%=      5-min Rain = 0
KLO1 231022Z 15007KT 23/18 A2982 RMK A01 T02300176  RH  071%=      5-min Rain = 0
KLO1 231023Z 15007KT 23/18 A2982 RMK A01 T02300176  RH  071%=      5-min Rain = 0
KLO1 231024Z 15007KT 23/18 A2982 RMK A01 T02300176  RH  072%=      5-min Rain = 0
KLO1 231025Z 15006KT 23/18 A2982 RMK A01 T02290176  RH  072%=      5-min Rain = 0
KLO1 231026Z 15006KT 23/18 A2983 RMK A01 T02290175  RH  072%=      5-min Rain = 0
KLO1 231027Z 15005KT 23/18 A2983 RMK A01 T02280176  RH  072%=      5-min Rain = 0
KLO1 231028Z 14005KT 23/18 A2983 RMK A01 T02280175  RH  072%=      5-min Rain = 0
KLO1 231029Z 14005KT 23/18 A2983 RMK A01 T02280176  RH  072%=      5-min Rain = 0
KLO1 231030Z 15004KT 23/18 A2983 RMK A01 T02280176  RH  072%=      5-min Rain = 0
KLO1 231031Z 15004KT 23/18 A2983 RMK A01 T02270175  RH  072%=      5-min Rain = 0
KLO1 231032Z 15004KT 23/18 A2983 RMK A01 T02270175  RH  073%=      5-min Rain = 0
KLO1 231033Z 16004KT 23/18 A2983 RMK A01 T02270175  RH  073%=      5-min Rain = 0
KLO1 231034Z 16004KT 23/18 A2983 RMK A01 T02270175  RH  073%=      5-min Rain = 0
KLO1 231035Z 17004KT 23/18 A2983 RMK A01 T02260175  RH  073%=      5-min Rain = 0
KLO1 231036Z 17004KT 23/18 A2983 RMK A01 T02260175  RH  073%=      5-min Rain = 0
KLO1 231037Z 18005KT 23/18 A2983 RMK A01 T02260176  RH  073%=      5-min Rain = 0
KLO1 231038Z 19005KT 23/18 A2983 RMK A01 T02260176  RH  073%=      5-min Rain = 0
KLO1 231039Z 19005KT 23/18 A2983 RMK A01 T02260176  RH  074%=      5-min Rain = 0
KLO1 231040Z 20006KT 23/18 A2983 RMK A01 T02250176  RH  074%=      5-min Rain = 0
KLO1 231041Z 20006KT 23/18 A2983 RMK A01 T02260176  RH  074%=      5-min Rain = 0
KLO1 231042Z 20005KT 23/18 A2983 RMK A01 T02260176  RH  074%=      5-min Rain = 0
KLO1 231043Z 21005KT 23/18 A2983 RMK A01 T02260176  RH  073%=      5-min Rain = 0
KLO1 231044Z 21005KT 23/18 A2983 RMK A01 T02260176  RH  073%=      5-min Rain = 0
KLO1 231045Z 21005KT 23/18 A2983 RMK A01 T02260176  RH  073%=      5-min Rain = 0
KLO1 231046Z 21005KT 23/18 A2983 RMK A01 T02260176  RH  073%=      5-min Rain = 0
KLO1 231047Z 21005KT 23/18 A2983 RMK A01 T02260176  RH  074%=      5-min Rain = 0
KLO1 231048Z 21005KT 23/18 A2983 RMK A01 T02260176  RH  074%=      5-min Rain = 0
KLO1 231049Z 21006KT 23/18 A2983 RMK A01 T02260177  RH  074%=      5-min Rain = 0
KLO1 231050Z 21006KT 23/18 A2983 RMK A01 T02260176  RH  074%=      5-min Rain = 0
KLO1 231051Z 20005KT 23/18 A2983 RMK A01 T02260176  RH  073%=      5-min Rain = 0
KLO1 231052Z 21005KT 23/18 A2983 RMK A01 T02250176  RH  074%=      5-min Rain = 0
KLO1 231053Z 20005KT 23/18 A2983 RMK A01 T02250176  RH  074%=      5-min Rain = 0
KLO1 231054Z 20005KT 22/18 A2983 RMK A01 T02240175  RH  074%=      5-min Rain = 0
KLO1 231055Z 20005KT 22/18 A2983 RMK A01 T02230175  RH  074%=      5-min Rain = 0
KLO1 231056Z 19004KT 22/18 A2983 RMK A01 T02220175  RH  074%=      5-min Rain = 0
KLO1 231057Z 18004KT 22/17 A2983 RMK A01 T02220174  RH  075%=      5-min Rain = 0
KLO1 231058Z 17004KT 22/17 A2983 RMK A01 T02210174  RH  075%=      5-min Rain = 0
KLO1 231059Z 17004KT 22/17 A2983 RMK A01 T02200173  RH  075%=      5-min Rain = 0
KLO1 231100Z 15004KT 22/17 A2983 RMK A01 T02190173  RH  075%=      5-min Rain = 0
KLO1 231101Z 15003KT 22/17 A2983 RMK A01 T02180173  RH  076%=      5-min Rain = 0
KLO1 231102Z 15003KT 22/17 A2983 RMK A01 T02170173  RH  076%=      5-min Rain = 0
KLO1 231103Z 15003KT 22/17 A2984 RMK A01 T02170173  RH  076%=      5-min Rain = 0
KLO1 231104Z 15003KT 22/17 A2984 RMK A01 T02150172  RH  076%=      5-min Rain = 0
KLO1 231105Z 14002KT 22/17 A2984 RMK A01 T02150173  RH  077%=      5-min Rain = 0
KLO1 231106Z 14002KT 21/17 A2984 RMK A01 T02140173  RH  077%=      5-min Rain = 0
KLO1 231107Z 14002KT 21/17 A2984 RMK A01 T02140174  RH  078%=      5-min Rain = 0
KLO1 231108Z 14003KT 21/17 A2984 RMK A01 T02140174  RH  078%=      5-min Rain = 0
KLO1 231109Z 14003KT 21/17 A2984 RMK A01 T02140174  RH  078%=      5-min Rain = 0
KLO1 231110Z 14002KT 21/17 A2984 RMK A01 T02140174  RH  078%=      5-min Rain = 0
KLO1 231111Z 15003KT 21/17 A2984 RMK A01 T02130174  RH  078%=      5-min Rain = 0
KLO1 231112Z 16003KT 21/18 A2984 RMK A01 T02130175  RH  078%=      5-min Rain = 0
KLO1 231113Z 17003KT 21/18 A2984 RMK A01 T02140175  RH  078%=      5-min Rain = 0
KLO1 231114Z 16003KT 21/18 A2984 RMK A01 T02140175  RH  078%=      5-min Rain = 0
KLO1 231115Z 16002KT 21/18 A2984 RMK A01 T02140175  RH  078%=      5-min Rain = 0
KLO1 231116Z 16003KT 21/18 A2984 RMK A01 T02140175  RH  078%=      5-min Rain = 0
KLO1 231117Z 15003KT 21/18 A2984 RMK A01 T02140175  RH  078%=      5-min Rain = 0
KLO1 231118Z 14004KT 22/18 A2984 RMK A01 T02150175  RH  078%=      5-min Rain = 0
KLO1 231119Z 14004KT 22/18 A2984 RMK A01 T02150175  RH  078%=      5-min Rain = 0
KLO1 231120Z 15004KT 22/18 A2984 RMK A01 T02150175  RH  078%=      5-min Rain = 0
KLO1 231121Z 14004KT 22/18 A2984 RMK A01 T02150175  RH  078%=      5-min Rain = 0
KLO1 231122Z 14005KT 21/17 A2984 RMK A01 T02140174  RH  078%=      5-min Rain = 0
KLO1 231123Z 15005KT 21/17 A2984 RMK A01 T02140174  RH  078%=      5-min Rain = 0
KLO1 231124Z 14005KT 21/17 A2984 RMK A01 T02130174  RH  078%=      5-min Rain = 0
KLO1 231125Z 15005KT 21/17 A2984 RMK A01 T02120173  RH  078%=      5-min Rain = 0
KLO1 231126Z 15004KT 21/17 A2984 RMK A01 T02120173  RH  078%=      5-min Rain = 0
KLO1 231127Z 16004KT 21/17 A2984 RMK A01 T02120173  RH  079%=      5-min Rain = 0
KLO1 231128Z 16005KT 21/17 A2984 RMK A01 T02120174  RH  079%=      5-min Rain = 0
KLO1 231129Z 17005KT 21/18 A2984 RMK A01 T02120175  RH  079%=      5-min Rain = 0
KLO1 231130Z 17004KT 21/18 A2984 RMK A01 T02140176  RH  079%=      5-min Rain = 0
KLO1 231131Z 17004KT 22/18 A2984 RMK A01 T02150175  RH  078%=      5-min Rain = 0
KLO1 231132Z 17004KT 22/18 A2984 RMK A01 T02150176  RH  078%=      5-min Rain = 0
KLO1 231133Z 17005KT 22/18 A2984 RMK A01 T02150175  RH  078%=      5-min Rain = 0
KLO1 231134Z 16005KT 22/18 A2984 RMK A01 T02150175  RH  078%=      5-min Rain = 0
KLO1 231135Z 16007KT 22/18 A2984 RMK A01 T02150176  RH  078%=      5-min Rain = 0
KLO1 231136Z 16006KT 22/18 A2984 RMK A01 T02160177  RH  078%=      5-min Rain = 0
KLO1 231137Z 16006KT 22/18 A2984 RMK A01 T02160176  RH  078%=      5-min Rain = 0
KLO1 231138Z 16006KT 22/18 A2984 RMK A01 T02160176  RH  078%=      5-min Rain = 0
KLO1 231139Z 17006KT 22/18 A2984 RMK A01 T02160177  RH  078%=      5-min Rain = 0
KLO1 231140Z 17006KT 22/18 A2984 RMK A01 T02170178  RH  078%=      5-min Rain = 0
KLO1 231141Z 17006KT 22/18 A2984 RMK A01 T02170178  RH  078%=      5-min Rain = 0
KLO1 231142Z 17006KT 22/18 A2984 RMK A01 T02170178  RH  078%=      5-min Rain = 0
KLO1 231143Z 17006KT 22/18 A2984 RMK A01 T02180178  RH  078%=      5-min Rain = 0
KLO1 231144Z 16007KT 22/18 A2984 RMK A01 T02170177  RH  078%=      5-min Rain = 0
KLO1 231145Z 16007KT 22/18 A2984 RMK A01 T02170177  RH  078%=      5-min Rain = 0
KLO1 231146Z 16007KT 22/18 A2984 RMK A01 T02170177  RH  078%=      5-min Rain = 0
KLO1 231147Z 16008KT 22/18 A2984 RMK A01 T02170178  RH  078%=      5-min Rain = 0
KLO1 231148Z 15007KT 22/18 A2984 RMK A01 T02170178  RH  078%=      5-min Rain = 0
KLO1 231149Z 15007KT 22/18 A2984 RMK A01 T02170178  RH  078%=      5-min Rain = 0
KLO1 231150Z 16006KT 22/18 A2984 RMK A01 T02160178  RH  078%=      5-min Rain = 0
KLO1 231151Z 16006KT 22/18 A2985 RMK A01 T02170178  RH  079%=      5-min Rain = 0
KLO1 231152Z 16006KT 22/18 A2985 RMK A01 T02170178  RH  079%=      5-min Rain = 0
KLO1 231153Z 16006KT 22/18 A2985 RMK A01 T02170178  RH  079%=      5-min Rain = 0
KLO1 231154Z 16006KT 22/18 A2985 RMK A01 T02160178  RH  079%=      5-min Rain = 0
KLO1 231155Z 16005KT 22/18 A2985 RMK A01 T02160178  RH  079%=      5-min Rain = 0
KLO1 231156Z 16004KT 22/18 A2985 RMK A01 T02160178  RH  079%=      5-min Rain = 0
KLO1 231157Z 17004KT 22/18 A2985 RMK A01 T02160178  RH  079%=      5-min Rain = 0
KLO1 231158Z 16005KT 22/18 A2985 RMK A01 T02160178  RH  079%=      5-min Rain = 0
KLO1 231159Z 15005KT 22/18 A2985 RMK A01 T02150178  RH  079%=      5-min Rain = 0
KLO1 231200Z 15006KT 22/18 A2985 RMK A01 T02150178  RH  079%=      5-min Rain = 0
KLO1 231201Z 16007KT 21/18 A2985 RMK A01 T02140178  RH  079%=      5-min Rain = 0
KLO1 231202Z 16005KT 21/18 A2985 RMK A01 T02140178  RH  080%=      5-min Rain = 0
KLO1 231203Z 17005KT 21/18 A2985 RMK A01 T02140178  RH  080%=      5-min Rain = 0
KLO1 231204Z 18005KT 22/18 A2986 RMK A01 T02150179  RH  080%=      5-min Rain = 0
KLO1 231205Z 18005KT 21/18 A2985 RMK A01 T02140178  RH  080%=      5-min Rain = 0
KLO1 231206Z 17005KT 21/18 A2985 RMK A01 T02140179  RH  080%=      5-min Rain = 0
KLO1 231207Z 18005KT 21/18 A2985 RMK A01 T02140178  RH  080%=      5-min Rain = 0
KLO1 231208Z 18005KT 21/18 A2985 RMK A01 T02140179  RH  080%=      5-min Rain = 0
KLO1 231209Z 18005KT 21/18 A2985 RMK A01 T02140179  RH  080%=      5-min Rain = 0
KLO1 231210Z 18005KT 21/18 A2985 RMK A01 T02140179  RH  080%=      5-min Rain = 0
KLO1 231211Z 19006KT 22/18 A2985 RMK A01 T02150180  RH  080%=      5-min Rain = 0
KLO1 231212Z 19006KT 22/18 A2986 RMK A01 T02150180  RH  080%=      5-min Rain = 0
KLO1 231213Z 18006KT 22/18 A2986 RMK A01 T02160181  RH  080%=      5-min Rain = 0
KLO1 231214Z 18006KT 22/18 A2986 RMK A01 T02170182  RH  080%=      5-min Rain = 0
KLO1 231215Z 18006KT 22/18 A2985 RMK A01 T02180182  RH  080%=      5-min Rain = 0
KLO1 231216Z 18007KT 22/18 A2985 RMK A01 T02190182  RH  080%=      5-min Rain = 0
KLO1 231217Z 18007KT 22/18 A2985 RMK A01 T02200183  RH  080%=      5-min Rain = 0
KLO1 231218Z 18008KT 22/18 A2986 RMK A01 T02210184  RH  079%=      5-min Rain = 0
KLO1 231219Z 17008KT 22/18 A2986 RMK A01 T02220184  RH  079%=      5-min Rain = 0
KLO1 231220Z 17008KT 22/18 A2986 RMK A01 T02230184  RH  079%=      5-min Rain = 0
KLO1 231221Z 17008KT 22/18 A2986 RMK A01 T02230184  RH  078%=      5-min Rain = 0
KLO1 231222Z 17009KT 22/19 A2986 RMK A01 T02240185  RH  078%=      5-min Rain = 0
KLO1 231223Z 17008KT 23/19 A2986 RMK A01 T02250185  RH  078%=      5-min Rain = 0
KLO1 231224Z 17008KT 23/19 A2986 RMK A01 T02250185  RH  078%=      5-min Rain = 0
KLO1 231225Z 17008KT 23/19 A2986 RMK A01 T02260186  RH  078%=      5-min Rain = 0
KLO1 231226Z 17009KT 23/19 A2986 RMK A01 T02260185  RH  078%=      5-min Rain = 0
KLO1 231227Z 16009KT 23/19 A2986 RMK A01 T02270185  RH  078%=      5-min Rain = 0
KLO1 231228Z 16009KT 23/19 A2986 RMK A01 T02270186  RH  077%=      5-min Rain = 0
KLO1 231229Z 16008KT 23/19 A2986 RMK A01 T02270186  RH  077%=      5-min Rain = 0
KLO1 231230Z 16008KT 23/19 A2986 RMK A01 T02280186  RH  077%=      5-min Rain = 0
KLO1 231231Z 17009KT 23/19 A2986 RMK A01 T02280186  RH  077%=      5-min Rain = 0
KLO1 231232Z 17008KT 23/19 A2986 RMK A01 T02280186  RH  077%=      5-min Rain = 0
KLO1 231233Z 16008KT 23/19 A2986 RMK A01 T02280186  RH  077%=      5-min Rain = 0
KLO1 231234Z 16008KT 23/19 A2986 RMK A01 T02290187  RH  077%=      5-min Rain = 0
KLO1 231235Z 16008KT 23/19 A2986 RMK A01 T02290187  RH  077%=      5-min Rain = 0
KLO1 231236Z 16009KT 23/19 A2986 RMK A01 T02290187  RH  077%=      5-min Rain = 0
KLO1 231237Z 16009KT 23/19 A2986 RMK A01 T02300187  RH  077%=      5-min Rain = 0
KLO1 231238Z 16009KT 23/19 A2986 RMK A01 T02300188  RH  077%=      5-min Rain = 0
KLO1 231239Z 16009KT 23/19 A2986 RMK A01 T02300188  RH  077%=      5-min Rain = 0
KLO1 231240Z 16008KT 23/19 A2986 RMK A01 T02310188  RH  077%=      5-min Rain = 0
KLO1 231241Z 16008KT 23/19 A2986 RMK A01 T02310188  RH  077%=      5-min Rain = 0
KLO1 231242Z 16009KT 23/19 A2986 RMK A01 T02320188  RH  077%=      5-min Rain = 0
KLO1 231243Z 16009KT 23/19 A2986 RMK A01 T02320189  RH  077%=      5-min Rain = 0
KLO1 231244Z 16009KT 23/19 A2986 RMK A01 T02330189  RH  076%=      5-min Rain = 0
KLO1 231245Z 16010KT 23/19 A2986 RMK A01 T02330189  RH  076%=      5-min Rain = 0
KLO1 231246Z 15010KT 23/19 A2986 RMK A01 T02330189  RH  076%=      5-min Rain = 0
KLO1 231247Z 16009KT 23/19 A2986 RMK A01 T02330189  RH  076%=      5-min Rain = 0
KLO1 231248Z 16010KT 23/19 A2986 RMK A01 T02330189  RH  076%=      5-min Rain = 0
KLO1 231249Z 16009KT 23/19 A2986 RMK A01 T02340190  RH  076%=      5-min Rain = 0
KLO1 231250Z 17008KT 23/19 A2987 RMK A01 T02340190  RH  076%=      5-min Rain = 0
KLO1 231251Z 17008KT 24/19 A2987 RMK A01 T02350190  RH  076%=      5-min Rain = 0
KLO1 231252Z 17008KT 24/19 A2987 RMK A01 T02350191  RH  076%=      5-min Rain = 0
KLO1 231253Z 16009KT 24/19 A2987 RMK A01 T02350191  RH  076%=      5-min Rain = 0
KLO1 231254Z 17009KT 24/19 A2986 RMK A01 T02360191  RH  076%=      5-min Rain = 0
KLO1 231255Z 16010KT 24/19 A2986 RMK A01 T02360191  RH  076%=      5-min Rain = 0
KLO1 231256Z 16008KT 24/19 A2986 RMK A01 T02360191  RH  076%=      5-min Rain = 0
KLO1 231257Z 16008KT 24/19 A2986 RMK A01 T02370192  RH  076%=      5-min Rain = 0
KLO1 231258Z 16011KT 24/19 A2986 RMK A01 T02380192  RH  076%=      5-min Rain = 0
KLO1 231259Z 16011KT 24/19 A2986 RMK A01 T02380192  RH  076%=      5-min Rain = 0
KLO1 231300Z 16011KT 24/19 A2986 RMK A01 T02380192  RH  076%=      5-min Rain = 0
KLO1 231301Z 16012KT 24/19 A2986 RMK A01 T02380192  RH  076%=      5-min Rain = 0
KLO1 231302Z 16013KT 24/19 A2986 RMK A01 T02380193  RH  076%=      5-min Rain = 0
KLO1 231303Z 16012KT 24/19 A2986 RMK A01 T02380193  RH  076%=      5-min Rain = 0
KLO1 231304Z 16012KT 24/19 A2986 RMK A01 T02380193  RH  076%=      5-min Rain = 0
KLO1 231305Z 16013KT 24/19 A2986 RMK A01 T02380193  RH  076%=      5-min Rain = 0
KLO1 231306Z 17013KT 24/19 A2986 RMK A01 T02380193  RH  076%=      5-min Rain = 0
KLO1 231307Z 16012KT 24/19 A2986 RMK A01 T02380194  RH  076%=      5-min Rain = 0
KLO1 231308Z 17013KT 24/19 A2986 RMK A01 T02390194  RH  076%=      5-min Rain = 0
KLO1 231309Z 16012KT 24/19 A2986 RMK A01 T02390194  RH  076%=      5-min Rain = 0
KLO1 231310Z 16013KT 24/20 A2986 RMK A01 T02390195  RH  076%=      5-min Rain = 0
KLO1 231311Z 16013KT 24/20 A2986 RMK A01 T02400195  RH  076%=      5-min Rain = 0
KLO1 231312Z 16014KT 24/20 A2987 RMK A01 T02400195  RH  076%=      5-min Rain = 0
KLO1 231313Z 16012KT 24/20 A2987 RMK A01 T02400195  RH  076%=      5-min Rain = 0
KLO1 231314Z 16013KT 24/20 A2987 RMK A01 T02410196  RH  076%=      5-min Rain = 0
KLO1 231315Z 15015G20KT 24/20 A2987 RMK A01 T02410196  RH  076%=      5-min Rain = 0
KLO1 231316Z 15016KT 24/20 A2987 RMK A01 T02420196  RH  076%=      5-min Rain = 0
KLO1 231317Z 16015KT 24/20 A2987 RMK A01 T02420196  RH  076%=      5-min Rain = 0
KLO1 231318Z 16015KT 24/20 A2987 RMK A01 T02420196  RH  076%=      5-min Rain = 0
KLO1 231319Z 16015KT 24/20 A2987 RMK A01 T02420196  RH  076%=      5-min Rain = 0
KLO1 231320Z 16017G24KT 24/20 A2987 RMK A01 T02420197  RH  076%=      5-min Rain = 0
KLO1 231321Z 16018G23KT 24/20 A2987 RMK A01 T02420197  RH  076%=      5-min Rain = 0
KLO1 231322Z 16016KT 24/20 A2987 RMK A01 T02420197  RH  076%=      5-min Rain = 0
KLO1 231323Z 16013KT 24/20 A2987 RMK A01 T02420197  RH  076%=      5-min Rain = 0
KLO1 231324Z 16015KT 24/20 A2987 RMK A01 T02430197  RH  075%=      5-min Rain = 0
KLO1 231325Z 15014KT 24/20 A2987 RMK A01 T02440197  RH  075%=      5-min Rain = 0
KLO1 231326Z 16014KT 24/20 A2987 RMK A01 T02440197  RH  075%=      5-min Rain = 0
KLO1 231327Z 16015KT 24/20 A2987 RMK A01 T02440197  RH  075%=      5-min Rain = 0
KLO1 231328Z 16016KT 24/20 A2987 RMK A01 T02440198  RH  075%=      5-min Rain = 0
KLO1 231329Z 16014KT 24/20 A2987 RMK A01 T02440197  RH  075%=      5-min Rain = 0
KLO1 231330Z 16012KT 24/20 A2987 RMK A01 T02440198  RH  075%=      5-min Rain = 0
KLO1 231331Z 16014KT 25/20 A2987 RMK A01 T02450198  RH  075%=      5-min Rain = 0
KLO1 231332Z 16018KT 25/20 A2987 RMK A01 T02450198  RH  075%=      5-min Rain = 0
KLO1 231333Z 16016KT 25/20 A2987 RMK A01 T02450198  RH  075%=      5-min Rain = 0
KLO1 231334Z 16014KT 25/20 A2987 RMK A01 T02450198  RH  075%=      5-min Rain = 0
KLO1 231335Z 16016KT 25/20 A2987 RMK A01 T02450198  RH  075%=      5-min Rain = 0
KLO1 231336Z 16013KT 24/20 A2987 RMK A01 T02440198  RH  075%=      5-min Rain = 0
KLO1 231337Z 15014KT 24/20 A2987 RMK A01 T02440198  RH  076%=      5-min Rain = 0
KLO1 231338Z 16015KT 25/20 A2987 RMK A01 T02450199  RH  075%=      5-min Rain = 0
KLO1 231339Z 16015KT 25/20 A2987 RMK A01 T02460198  RH  075%=      5-min Rain = 0
KLO1 231340Z 15014KT 25/20 A2988 RMK A01 T02460198  RH  075%=      5-min Rain = 0
KLO1 231341Z 15016KT 25/20 A2988 RMK A01 T02460198  RH  075%=      5-min Rain = 0
KLO1 231342Z 15013KT 25/20 A2988 RMK A01 T02460198  RH  075%=      5-min Rain = 0
KLO1 231343Z 15015KT 25/20 A2988 RMK A01 T02460199  RH  075%=      5-min Rain = 0
KLO1 231344Z 16016KT 25/20 A2988 RMK A01 T02470198  RH  074%=      5-min Rain = 0
KLO1 231345Z 16014KT 25/20 A2988 RMK A01 T02470198  RH  074%=      5-min Rain = 0
KLO1 231346Z 16015KT 25/20 A2988 RMK A01 T02480198  RH  074%=      5-min Rain = 0
KLO1 231347Z 15014KT 25/20 A2988 RMK A01 T02480199  RH  074%=      5-min Rain = 0
KLO1 231348Z 16014KT 25/20 A2988 RMK A01 T02480199  RH  074%=      5-min Rain = 0
KLO1 231349Z 15015KT 25/20 A2988 RMK A01 T02500200  RH  074%=      5-min Rain = 0
KLO1 231350Z 14014KT 25/20 A2988 RMK A01 T02500200  RH  074%=      5-min Rain = 0
KLO1 231351Z 15015KT 25/20 A2988 RMK A01 T02510199  RH  073%=      5-min Rain = 0
KLO1 231352Z 15016KT 25/20 A2988 RMK A01 T02510199  RH  073%=      5-min Rain = 0
KLO1 231353Z 14013KT 25/20 A2988 RMK A01 T02510199  RH  073%=      5-min Rain = 0
KLO1 231354Z 14014KT 25/20 A2988 RMK A01 T02500200  RH  074%=      5-min Rain = 0
KLO1 231355Z 14016KT 25/20 A2989 RMK A01 T02520199  RH  073%=      5-min Rain = 0
KLO1 231356Z 15014KT 25/20 A2989 RMK A01 T02510199  RH  073%=      5-min Rain = 0
KLO1 231357Z 15017KT 25/20 A2989 RMK A01 T02510199  RH  073%=      5-min Rain = 0
KLO1 231358Z 15014KT 25/20 A2989 RMK A01 T02500199  RH  073%=      5-min Rain = 0
KLO1 231359Z 16017KT 25/20 A2989 RMK A01 T02490199  RH  074%=      5-min Rain = 0
KLO1 231400Z 15012KT 25/20 A2989 RMK A01 T02490199  RH  074%=      5-min Rain = 0
KLO1 231401Z 15015KT 25/20 A2989 RMK A01 T02500199  RH  074%=      5-min Rain = 0
KLO1 231402Z 15012KT 25/20 A2989 RMK A01 T02500199  RH  073%=      5-min Rain = 0
KLO1 231403Z 15015KT 25/20 A2989 RMK A01 T02500200  RH  073%=      5-min Rain = 0
KLO1 231404Z 15013KT 25/20 A2989 RMK A01 T02500199  RH  073%=      5-min Rain = 0
KLO1 231405Z 15014KT 25/20 A2989 RMK A01 T02490199  RH  074%=      5-min Rain = 0
KLO1 231406Z 16016KT 25/20 A2989 RMK A01 T02500200  RH  073%=      5-min Rain = 0
KLO1 231407Z 15016KT 25/20 A2989 RMK A01 T02510199  RH  073%=      5-min Rain = 0
KLO1 231408Z 15016KT 25/20 A2989 RMK A01 T02510199  RH  073%=      5-min Rain = 0
KLO1 231409Z 15016KT 25/20 A2989 RMK A01 T02510199  RH  073%=      5-min Rain = 0
KLO1 231410Z 16014KT 25/20 A2989 RMK A01 T02520200  RH  073%=      5-min Rain = 0
KLO1 231411Z 16013KT 25/20 A2989 RMK A01 T02540200  RH  072%=      5-min Rain = 0
KLO1 231412Z 15015KT 26/20 A2989 RMK A01 T02550201  RH  072%=      5-min Rain = 0
KLO1 231413Z 16018KT 26/20 A2989 RMK A01 T02560200  RH  071%=      5-min Rain = 0
KLO1 231414Z 15015KT 26/20 A2989 RMK A01 T02560201  RH  071%=      5-min Rain = 0
KLO1 231415Z 15017KT 26/20 A2989 RMK A01 T02580200  RH  071%=      5-min Rain = 0
KLO1 231416Z 15018KT 26/20 A2989 RMK A01 T02580200  RH  070%=      5-min Rain = 0
KLO1 231417Z 15018KT 26/20 A2989 RMK A01 T02590200  RH  070%=      5-min Rain = 0
KLO1 231418Z 15020KT 26/20 A2989 RMK A01 T02590199  RH  069%=      5-min Rain = 0
KLO1 231419Z 15018KT 26/20 A2989 RMK A01 T02570198  RH  070%=      5-min Rain = 0
KLO1 231420Z 15017KT 26/20 A2989 RMK A01 T02570200  RH  071%=      5-min Rain = 0
KLO1 231421Z 15017KT 26/20 A2989 RMK A01 T02590200  RH  070%=      5-min Rain = 0
KLO1 231422Z 15016KT 26/20 A2989 RMK A01 T02590199  RH  069%=      5-min Rain = 0
KLO1 231423Z 15015KT 26/20 A2989 RMK A01 T02590200  RH  070%=      5-min Rain = 0
KLO1 231424Z 15018KT 26/20 A2989 RMK A01 T02600200  RH  069%=      5-min Rain = 0
KLO1 231425Z 15019KT 26/20 A2989 RMK A01 T02620199  RH  068%=      5-min Rain = 0
KLO1 231426Z 16018KT 26/20 A2989 RMK A01 T02620198  RH  068%=      5-min Rain = 0
KLO1 231427Z 16018KT 26/20 A2989 RMK A01 T02600197  RH  068%=      5-min Rain = 0
KLO1 231428Z 15019KT 26/20 A2989 RMK A01 T02590197  RH  068%=      5-min Rain = 0
KLO1 231429Z 15017KT 26/20 A2989 RMK A01 T02580197  RH  069%=      5-min Rain = 0
KLO1 231430Z 15017KT 26/20 A2989 RMK A01 T02580198  RH  069%=      5-min Rain = 0
KLO1 231431Z 16016KT 26/20 A2989 RMK A01 T02580198  RH  069%=      5-min Rain = 0
KLO1 231432Z 16016KT 26/20 A2989 RMK A01 T02580195  RH  068%=      5-min Rain = 0
KLO1 231433Z 16016KT 26/20 A2989 RMK A01 T02580196  RH  068%=      5-min Rain = 0
KLO1 231434Z 16016KT 26/20 A2989 RMK A01 T02580197  RH  069%=      5-min Rain = 0
KLO1 231435Z 15019KT 26/20 A2989 RMK A01 T02590197  RH  069%=      5-min Rain = 0
KLO1 231436Z 15019KT 26/20 A2989 RMK A01 T02590196  RH  068%=      5-min Rain = 0
KLO1 231437Z 15017G22KT 26/20 A2989 RMK A01 T02600197  RH  068%=      5-min Rain = 0
KLO1 231438Z 15018KT 26/20 A2989 RMK A01 T02620197  RH  068%=      5-min Rain = 0
KLO1 231439Z 15018KT 26/20 A299 RMK A01 T02640198  RH  067%=      5-min Rain = 0
KLO1 231440Z 14018KT 27/20 A299 RMK A01 T02660197  RH  066%=      5-min Rain = 0
KLO1 231441Z 15020KT 27/20 A2989 RMK A01 T02670197  RH  066%=      5-min Rain = 0
KLO1 231442Z 15020KT 27/20 A2989 RMK A01 T02660195  RH  065%=      5-min Rain = 0
KLO1 231443Z 15020KT 27/20 A2989 RMK A01 T02670195  RH  064%=      5-min Rain = 0
KLO1 231444Z 15020KT 27/20 A2989 RMK A01 T02680196  RH  065%=      5-min Rain = 0
KLO1 231445Z 15018G23KT 27/20 A2989 RMK A01 T02700196  RH  064%=      5-min Rain = 0
KLO1 231446Z 14019KT 27/20 A2989 RMK A01 T02710196  RH  063%=      5-min Rain = 0
KLO1 231447Z 15021KT 27/20 A2989 RMK A01 T02720195  RH  063%=      5-min Rain = 0
KLO1 231448Z 15022KT 27/20 A2989 RMK A01 T02700196  RH  064%=      5-min Rain = 0
KLO1 231449Z 15020KT 27/20 A2989 RMK A01 T02680195  RH  064%=      5-min Rain = 0
KLO1 231450Z 15020KT 27/20 A2989 RMK A01 T02690195  RH  064%=      5-min Rain = 0
KLO1 231451Z 14018KT 27/20 A2989 RMK A01 T02700196  RH  064%=      5-min Rain = 0
KLO1 231452Z 14019G24KT 27/20 A2989 RMK A01 T02710196  RH  064%=      5-min Rain = 0
KLO1 231453Z 14020KT 27/20 A2989 RMK A01 T02710197  RH  064%=      5-min Rain = 0
KLO1 231454Z 14020KT 27/20 A2989 RMK A01 T02720197  RH  064%=      5-min Rain = 0
KLO1 231455Z 15018KT 27/20 A2989 RMK A01 T02710196  RH  063%=      5-min Rain = 0
KLO1 231456Z 14018KT 27/20 A2989 RMK A01 T02690195  RH  064%=      5-min Rain = 0
KLO1 231457Z 14018KT 27/20 A2989 RMK A01 T02710195  RH  063%=      5-min Rain = 0
KLO1 231458Z 15018KT 27/20 A2989 RMK A01 T02710195  RH  063%=      5-min Rain = 0
KLO1 231459Z 15018KT 27/20 A2989 RMK A01 T02720196  RH  063%=      5-min Rain = 0
KLO1 231500Z 15018KT 27/20 A2989 RMK A01 T02730195  RH  062%=      5-min Rain = 0
KLO1 231501Z 15017KT 27/20 A2989 RMK A01 T02710195  RH  063%=      5-min Rain = 0
KLO1 231502Z 15015KT 27/20 A2989 RMK A01 T02700196  RH  064%=      5-min Rain = 0
KLO1 231503Z 16014KT 27/20 A2989 RMK A01 T02710195  RH  063%=      5-min Rain = 0
KLO1 231504Z 15017KT 27/20 A2989 RMK A01 T02720195  RH  063%=      5-min Rain = 0
KLO1 231505Z 15015KT 27/19 A2989 RMK A01 T02700194  RH  063%=      5-min Rain = 0
KLO1 231506Z 16017KT 27/19 A2989 RMK A01 T02690194  RH  064%=      5-min Rain = 0
KLO1 231507Z 15018G23KT 27/20 A2989 RMK A01 T02690195  RH  064%=      5-min Rain = 0
KLO1 231508Z 14020KT 27/20 A2989 RMK A01 T02700195  RH  064%=      5-min Rain = 0
KLO1 231509Z 14019KT 27/20 A2989 RMK A01 T02710195  RH  063%=      5-min Rain = 0
KLO1 231510Z 14019KT 27/20 A2989 RMK A01 T02740195  RH  062%=      5-min Rain = 0
KLO1 231511Z 14018KT 28/20 A2989 RMK A01 T02760195  RH  061%=      5-min Rain = 0
KLO1 231512Z 14016G21KT 28/20 A2989 RMK A01 T02790196  RH  061%=      5-min Rain = 0
KLO1 231513Z 14019KT 28/20 A2989 RMK A01 T02810195  RH  059%=      5-min Rain = 0
KLO1 231514Z 14017KT 28/19 A2989 RMK A01 T02780193  RH  060%=      5-min Rain = 0
KLO1 231515Z 14016KT 28/19 A2989 RMK A01 T02770194  RH  061%=      5-min Rain = 0
KLO1 231516Z 14017KT 28/19 A2989 RMK A01 T02800194  RH  060%=      5-min Rain = 0
KLO1 231517Z 13018KT 28/19 A2989 RMK A01 T02820193  RH  058%=      5-min Rain = 0
KLO1 231518Z 13017KT 28/19 A2989 RMK A01 T02820193  RH  059%=      5-min Rain = 0
KLO1 231519Z 14018KT 28/19 A2989 RMK A01 T02820194  RH  059%=      5-min Rain = 0
KLO1 231520Z 15018KT 28/19 A2989 RMK A01 T02800192  RH  059%=      5-min Rain = 0
KLO1 231521Z 15018KT 28/19 A2989 RMK A01 T02790191  RH  059%=      5-min Rain = 0
KLO1 231522Z 13019KT 28/19 A2989 RMK A01 T02790193  RH  059%=      5-min Rain = 0
KLO1 231523Z 14022KT 28/19 A2989 RMK A01 T02820192  RH  058%=      5-min Rain = 0
KLO1 231524Z 14019KT 28/19 A2988 RMK A01 T02840191  RH  057%=      5-min Rain = 0
KLO1 231525Z 15018KT 28/19 A2988 RMK A01 T02840193  RH  058%=      5-min Rain = 0
KLO1 231526Z 15019KT 28/19 A2988 RMK A01 T02830193  RH  058%=      5-min Rain = 0
KLO1 231527Z 15019KT 28/19 A2988 RMK A01 T02830193  RH  058%=      5-min Rain = 0
KLO1 231528Z 14020KT 28/19 A2988 RMK A01 T02830191  RH  058%=      5-min Rain = 0
KLO1 231529Z 14022KT 28/19 A2988 RMK A01 T02830191  RH  057%=      5-min Rain = 0
KLO1 231530Z 14018KT 28/19 A2988 RMK A01 T02820191  RH  058%=      5-min Rain = 0
KLO1 231531Z 15015KT 28/19 A2988 RMK A01 T02820192  RH  058%=      5-min Rain = 0
KLO1 231532Z 14020KT 28/19 A2988 RMK A01 T02830193  RH  058%=      5-min Rain = 0
KLO1 231533Z 15020KT 29/19 A2988 RMK A01 T02850191  RH  057%=      5-min Rain = 0
KLO1 231534Z 14018KT 29/19 A2988 RMK A01 T02850188  RH  056%=      5-min Rain = 0
KLO1 231535Z 14017KT 28/19 A2988 RMK A01 T02810189  RH  057%=      5-min Rain = 0
KLO1 231536Z 15017KT 28/19 A2988 RMK A01 T02800189  RH  058%=      5-min Rain = 0
KLO1 231537Z 16020KT 28/19 A2988 RMK A01 T02790190  RH  058%=      5-min Rain = 0
KLO1 231538Z 15019KT 28/19 A2988 RMK A01 T02790190  RH  058%=      5-min Rain = 0
KLO1 231539Z 14016KT 28/19 A2988 RMK A01 T02790191  RH  059%=      5-min Rain = 0
KLO1 231540Z 15015KT 28/19 A2988 RMK A01 T02790191  RH  059%=      5-min Rain = 0
KLO1 231541Z 16020KT 28/19 A2988 RMK A01 T02800191  RH  058%=      5-min Rain = 0
KLO1 231542Z 15019KT 28/19 A2988 RMK A01 T02790189  RH  058%=      5-min Rain = 0
KLO1 231543Z 16018KT 28/19 A2988 RMK A01 T02770188  RH  058%=      5-min Rain = 0
KLO1 231544Z 16017KT 28/19 A2988 RMK A01 T02770189  RH  059%=      5-min Rain = 0
KLO1 231545Z 17019KT 28/19 A2988 RMK A01 T02770188  RH  058%=      5-min Rain = 0
KLO1 231546Z 17018KT 28/19 A2988 RMK A01 T02770187  RH  058%=      5-min Rain = 0
KLO1 231547Z 17018KT 28/19 A2988 RMK A01 T02780189  RH  058%=      5-min Rain = 0
KLO1 231548Z 16017KT 28/19 A2988 RMK A01 T02800192  RH  059%=      5-min Rain = 0
KLO1 231549Z 14017G23KT 28/19 A2988 RMK A01 T02840192  RH  058%=      5-min Rain = 0
KLO1 231550Z 15022KT 29/19 A2988 RMK A01 T02870190  RH  056%=      5-min Rain = 0
KLO1 231551Z 15017KT 29/19 A2988 RMK A01 T02890191  RH  055%=      5-min Rain = 0
KLO1 231552Z 15019KT 29/19 A2988 RMK A01 T02920190  RH  054%=      5-min Rain = 0
KLO1 231553Z 14019KT 29/19 A2988 RMK A01 T02910190  RH  054%=      5-min Rain = 0
KLO1 231554Z 14019KT 29/19 A2988 RMK A01 T02890190  RH  055%=      5-min Rain = 0
KLO1 231555Z 15021KT 29/19 A2988 RMK A01 T02880191  RH  056%=      5-min Rain = 0
KLO1 231556Z 15019G24KT 29/19 A2988 RMK A01 T02880191  RH  055%=      5-min Rain = 0
KLO1 231557Z 15019KT 29/19 A2988 RMK A01 T02890191  RH  055%=      5-min Rain = 0
KLO1 231558Z 14020KT 29/19 A2988 RMK A01 T02910191  RH  055%=      5-min Rain = 0
KLO1 231559Z 14020KT 29/19 A2988 RMK A01 T02920191  RH  055%=      5-min Rain = 0
KLO1 231600Z 15019KT 29/19 A2988 RMK A01 T02930188  RH  053%=      5-min Rain = 0
KLO1 231601Z 15020KT 29/19 A2988 RMK A01 T02910188  RH  054%=      5-min Rain = 0
KLO1 231602Z 15020KT 29/19 A2988 RMK A01 T02900189  RH  054%=      5-min Rain = 0
KLO1 231603Z 15017KT 29/19 A2988 RMK A01 T02900190  RH  055%=      5-min Rain = 0
KLO1 231604Z 16017KT 29/19 A2988 RMK A01 T02900191  RH  055%=      5-min Rain = 0
KLO1 231605Z 16019KT 29/19 A2988 RMK A01 T02890192  RH  056%=      5-min Rain = 0
KLO1 231606Z 15020KT 29/19 A2988 RMK A01 T02890191  RH  055%=      5-min Rain = 0
KLO1 231607Z 15015KT 29/19 A2988 RMK A01 T02890190  RH  055%=      5-min Rain = 0
KLO1 231608Z 15019KT 29/19 A2988 RMK A01 T02890191  RH  055%=      5-min Rain = 0
KLO1 231609Z 15019KT 29/19 A2988 RMK A01 T02900191  RH  055%=      5-min Rain = 0
KLO1 231610Z 16016KT 29/19 A2988 RMK A01 T02910189  RH  054%=      5-min Rain = 0
KLO1 231611Z 16016KT 29/19 A2987 RMK A01 T02920190  RH  054%=      5-min Rain = 0
KLO1 231612Z 16019KT 30/19 A2987 RMK A01 T02950190  RH  053%=      5-min Rain = 0
KLO1 231613Z 17021KT 30/19 A2988 RMK A01 T02970188  RH  052%=      5-min Rain = 0
KLO1 231614Z 17019KT 30/19 A2988 RMK A01 T02970188  RH  052%=      5-min Rain = 0
KLO1 231615Z 17016KT 30/19 A2988 RMK A01 T02960188  RH  052%=      5-min Rain = 0
KLO1 231616Z 16016KT 30/19 A2988 RMK A01 T02960188  RH  052%=      5-min Rain = 0
KLO1 231617Z 16015KT 30/19 A2988 RMK A01 T02960188  RH  052%=      5-min Rain = 0
KLO1 231618Z 16013KT 30/19 A2988 RMK A01 T02980188  RH  052%=      5-min Rain = 0
KLO1 231619Z 16015G20KT 30/19 A2987 RMK A01 T02990189  RH  052%=      5-min Rain = 0
KLO1 231620Z 18019G24KT 30/19 A2988 RMK A01 T02990189  RH  052%=      5-min Rain = 0
KLO1 231621Z 17016KT 30/19 A2987 RMK A01 T02990188  RH  052%=      5-min Rain = 0
KLO1 231622Z 17023KT 30/19 A2987 RMK A01 T02990188  RH  051%=      5-min Rain = 0
KLO1 231623Z 18020G25KT 30/19 A2987 RMK A01 T02980186  RH  051%=      5-min Rain = 0
KLO1 231624Z 18019G24KT 30/19 A2987 RMK A01 T02960187  RH  052%=      5-min Rain = 0
KLO1 231625Z 18016KT 30/19 A2987 RMK A01 T02960187  RH  052%=      5-min Rain = 0
KLO1 231626Z 17018KT 30/19 A2987 RMK A01 T02960188  RH  052%=      5-min Rain = 0
KLO1 231627Z 18023KT 30/19 A2987 RMK A01 T02960188  RH  052%=      5-min Rain = 0
KLO1 231628Z 17017KT 30/19 A2987 RMK A01 T02950188  RH  053%=      5-min Rain = 0
KLO1 231629Z 17016KT 29/19 A2987 RMK A01 T02940190  RH  053%=      5-min Rain = 0
KLO1 231630Z 17018KT 30/19 A2987 RMK A01 T02960188  RH  052%=      5-min Rain = 0
KLO1 231631Z 18019G24KT 30/19 A2987 RMK A01 T02990187  RH  051%=      5-min Rain = 0
KLO1 231632Z 18018KT 30/19 A2987 RMK A01 T02980186  RH  051%=      5-min Rain = 0
KLO1 231633Z 17017KT 30/19 A2987 RMK A01 T02960186  RH  052%=      5-min Rain = 0
KLO1 231634Z 17017KT 30/19 A2987 RMK A01 T02980187  RH  051%=      5-min Rain = 0
KLO1 231635Z 15018G23KT 30/19 A2987 RMK A01 T03010189  RH  051%=      5-min Rain = 0
KLO1 231636Z 16020KT 30/19 A2987 RMK A01 T03040189  RH  050%=      5-min Rain = 0
KLO1 231637Z 16019KT 31/19 A2987 RMK A01 T03050188  RH  050%=      5-min Rain = 0
KLO1 231638Z 15021G26KT 30/19 A2987 RMK A01 T03010187  RH  051%=      5-min Rain = 0
KLO1 231639Z 15018KT 30/19 A2987 RMK A01 T02970187  RH  052%=      5-min Rain = 0
KLO1 231640Z 15017KT 30/19 A2987 RMK A01 T02960186  RH  052%=      5-min Rain = 0
KLO1 231641Z 16016KT 30/19 A2987 RMK A01 T02960187  RH  052%=      5-min Rain = 0
KLO1 231642Z 17015KT 30/19 A2987 RMK A01 T02970189  RH  052%=      5-min Rain = 0
KLO1 231643Z 16020KT 30/19 A2987 RMK A01 T03020191  RH  051%=      5-min Rain = 0
KLO1 231644Z 16020KT 30/19 A2987 RMK A01 T03040189  RH  050%=      5-min Rain = 0
KLO1 231645Z 16018KT 30/19 A2987 RMK A01 T03030188  RH  050%=      5-min Rain = 0
KLO1 231646Z 15017G23KT 30/19 A2987 RMK A01 T03020189  RH  051%=      5-min Rain = 0
KLO1 231647Z 15019KT 30/19 A2987 RMK A01 T03020189  RH  051%=      5-min Rain = 0
KLO1 231648Z 15016KT 30/19 A2987 RMK A01 T03030188  RH  050%=      5-min Rain = 0
KLO1 231649Z 18019G24KT 31/19 A2987 RMK A01 T03060188  RH  050%=      5-min Rain = 0
KLO1 231650Z 17018KT 31/19 A2987 RMK A01 T03070185  RH  048%=      5-min Rain = 0
KLO1 231651Z 17015KT 30/19 A2987 RMK A01 T03040185  RH  049%=      5-min Rain = 0
KLO1 231652Z 15018KT 30/19 A2987 RMK A01 T03040188  RH  050%=      5-min Rain = 0
KLO1 231653Z 15017KT 30/19 A2987 RMK A01 T03040190  RH  050%=      5-min Rain = 0
KLO1 231654Z 15017KT 31/19 A2987 RMK A01 T03060190  RH  050%=      5-min Rain = 0
KLO1 231655Z 16021KT 31/19 A2987 RMK A01 T03080189  RH  049%=      5-min Rain = 0
KLO1 231656Z 17019KT 31/19 A2987 RMK A01 T03070187  RH  049%=      5-min Rain = 0
KLO1 231657Z 16019G24KT 31/19 A2987 RMK A01 T03060187  RH  049%=      5-min Rain = 0
KLO1 231658Z 16017G23KT 31/19 A2987 RMK A01 T03050186  RH  049%=      5-min Rain = 0
KLO1 231659Z 17018KT 30/19 A2987 RMK A01 T03040187  RH  049%=      5-min Rain = 0
KLO1 231700Z 16015KT 30/19 A2987 RMK A01 T03030187  RH  050%=      5-min Rain = 0
KLO1 231701Z 16016KT 31/19 A2987 RMK A01 T03050188  RH  050%=      5-min Rain = 0
KLO1 231702Z 15016KT 31/19 A2987 RMK A01 T03070188  RH  049%=      5-min Rain = 0
KLO1 231703Z 16017KT 31/19 A2987 RMK A01 T03070187  RH  049%=      5-min Rain = 0
KLO1 231704Z 16018KT 31/19 A2987 RMK A01 T03050187  RH  049%=      5-min Rain = 0
KLO1 231705Z 18020KT 31/19 A2987 RMK A01 T03050185  RH  049%=      5-min Rain = 0
KLO1 231706Z 17017KT 31/18 A2987 RMK A01 T03060184  RH  048%=      5-min Rain = 0
KLO1 231707Z 17021KT 31/18 A2987 RMK A01 T03090182  RH  047%=      5-min Rain = 0
KLO1 231708Z 17019KT 31/18 A2986 RMK A01 T03070182  RH  047%=      5-min Rain = 0
KLO1 231709Z 17015KT 31/18 A2987 RMK A01 T03070183  RH  047%=      5-min Rain = 0
KLO1 231710Z 17015KT 31/19 A2986 RMK A01 T03110186  RH  047%=      5-min Rain = 0
KLO1 231711Z 16018G23KT 31/19 A2987 RMK A01 T03110187  RH  048%=      5-min Rain = 0
KLO1 231712Z 17020KT 31/19 A2986 RMK A01 T03090185  RH  048%=      5-min Rain = 0
KLO1 231713Z 17020G25KT 31/19 A2986 RMK A01 T03060185  RH  049%=      5-min Rain = 0
KLO1 231714Z 17018KT 31/19 A2986 RMK A01 T03080186  RH  048%=      5-min Rain = 0
KLO1 231715Z 17020KT 31/18 A2987 RMK A01 T03090184  RH  047%=      5-min Rain = 0
KLO1 231716Z 18019KT 31/18 A2986 RMK A01 T03080182  RH  047%=      5-min Rain = 0
KLO1 231717Z 17016G21KT 31/18 A2986 RMK A01 T03050183  RH  048%=      5-min Rain = 0
KLO1 231718Z 16017KT 31/18 A2986 RMK A01 T03060184  RH  048%=      5-min Rain = 0
KLO1 231719Z 16016G21KT 31/18 A2986 RMK A01 T03050184  RH  048%=      5-min Rain = 0
KLO1 231720Z 17019KT 30/18 A2986 RMK A01 T03040180  RH  048%=      5-min Rain = 0
KLO1 231721Z 18020KT 30/18 A2986 RMK A01 T03040181  RH  048%=      5-min Rain = 0
KLO1 231722Z 18017KT 30/18 A2986 RMK A01 T03030181  RH  048%=      5-min Rain = 0
KLO1 231723Z 17016KT 30/18 A2986 RMK A01 T03020182  RH  048%=      5-min Rain = 0
KLO1 231724Z 17019KT 31/18 A2986 RMK A01 T03050184  RH  048%=      5-min Rain = 0
KLO1 231725Z 17020G26KT 31/19 A2986 RMK A01 T03090185  RH  048%=      5-min Rain = 0
KLO1 231726Z 16022KT 31/19 A2985 RMK A01 T03120186  RH  047%=      5-min Rain = 0
KLO1 231727Z 16021KT 31/18 A2985 RMK A01 T03120183  RH  046%=      5-min Rain = 0
KLO1 231728Z 16018G23KT 31/18 A2985 RMK A01 T03100182  RH  046%=      5-min Rain = 0
KLO1 231729Z 16020KT 31/18 A2985 RMK A01 T03110182  RH  046%=      5-min Rain = 0
KLO1 231730Z 16019KT 31/18 A2985 RMK A01 T03130182  RH  046%=      5-min Rain = 0
KLO1 231731Z 16015KT 31/18 A2985 RMK A01 T03140182  RH  046%=      5-min Rain = 0
KLO1 231732Z 16020G28KT 32/18 A2985 RMK A01 T03150183  RH  045%=      5-min Rain = 0
KLO1 231733Z 16021KT 31/18 A2985 RMK A01 T03140181  RH  045%=      5-min Rain = 0
KLO1 231734Z 16016KT 31/18 A2985 RMK A01 T03110182  RH  046%=      5-min Rain = 0
KLO1 231735Z 17019KT 31/18 A2985 RMK A01 T03130183  RH  046%=      5-min Rain = 0
KLO1 231736Z 19020KT 32/18 A2985 RMK A01 T03160182  RH  045%=      5-min Rain = 0
KLO1 231737Z 19019G25KT 32/18 A2985 RMK A01 T03170181  RH  044%=      5-min Rain = 0
KLO1 231738Z 19022G27KT 32/18 A2985 RMK A01 T03190180  RH  044%=      5-min Rain = 0
KLO1 231739Z 17022KT 32/18 A2985 RMK A01 T03180180  RH  044%=      5-min Rain = 0
KLO1 231740Z 17021KT 32/18 A2985 RMK A01 T03160179  RH  044%=      5-min Rain = 0
KLO1 231741Z 17015KT 32/18 A2985 RMK A01 T03160178  RH  044%=      5-min Rain = 0
KLO1 231742Z 19015KT 31/18 A2985 RMK A01 T03140178  RH  044%=      5-min Rain = 0
KLO1 231743Z 17021KT 31/18 A2985 RMK A01 T03140180  RH  045%=      5-min Rain = 0
KLO1 231744Z 16021KT 32/18 A2985 RMK A01 T03170183  RH  045%=      5-min Rain = 0
KLO1 231745Z 15021KT 32/18 A2985 RMK A01 T03160182  RH  045%=      5-min Rain = 0
KLO1 231746Z 16019KT 32/18 A2985 RMK A01 T03160181  RH  045%=      5-min Rain = 0
KLO1 231747Z 16020KT 32/18 A2985 RMK A01 T03150180  RH  044%=      5-min Rain = 0
KLO1 231748Z 16016G22KT 32/18 A2985 RMK A01 T03190182  RH  044%=      5-min Rain = 0
KLO1 231749Z 16015KT 32/18 A2985 RMK A01 T03200180  RH  044%=      5-min Rain = 0
KLO1 231750Z 16020KT 32/18 A2985 RMK A01 T03160181  RH  045%=      5-min Rain = 0
KLO1 231751Z 18020KT 32/18 A2985 RMK A01 T03150181  RH  045%=      5-min Rain = 0
KLO1 231752Z 18013G18KT 32/18 A2985 RMK A01 T03160183  RH  045%=      5-min Rain = 0
KLO1 231753Z 17016KT 32/19 A2985 RMK A01 T03220187  RH  045%=      5-min Rain = 0
KLO1 231754Z 17019KT 33/18 A2985 RMK A01 T03260184  RH  043%=      5-min Rain = 0
KLO1 231755Z 16020KT 32/18 A2985 RMK A01 T03220182  RH  043%=      5-min Rain = 0
KLO1 231756Z 17020G27KT 32/18 A2985 RMK A01 T03220181  RH  043%=      5-min Rain = 0
KLO1 231757Z 17019G25KT 32/18 A2985 RMK A01 T03210179  RH  043%=      5-min Rain = 0
KLO1 231758Z 17015KT 32/18 A2985 RMK A01 T03180178  RH  043%=      5-min Rain = 0
KLO1 231759Z 17020KT 32/18 A2985 RMK A01 T03180183  RH  045%=      5-min Rain = 0
KLO1 231800Z 16020KT 32/18 A2985 RMK A01 T03230183  RH  044%=      5-min Rain = 0
KLO1 231801Z 17020KT 32/18 A2985 RMK A01 T03210181  RH  043%=      5-min Rain = 0
KLO1 231802Z 16019G24KT 32/18 A2985 RMK A01 T03170179  RH  044%=      5-min Rain = 0
KLO1 231803Z 18020G26KT 32/18 A2985 RMK A01 T03170179  RH  044%=      5-min Rain = 0
KLO1 231804Z 17019KT 32/18 A2985 RMK A01 T03190177  RH  043%=      5-min Rain = 0
KLO1 231805Z 19018KT 32/18 A2985 RMK A01 T03190175  RH  042%=      5-min Rain = 0
KLO1 231806Z 18020KT 32/18 A2985 RMK A01 T03200175  RH  042%=      5-min Rain = 0
KLO1 231807Z 17016KT 32/18 A2985 RMK A01 T03210177  RH  042%=      5-min Rain = 0
KLO1 231808Z 17017KT 32/18 A2985 RMK A01 T03240182  RH  043%=      5-min Rain = 0
KLO1 231809Z 16016KT 32/18 A2985 RMK A01 T03240183  RH  043%=      5-min Rain = 0
KLO1 231810Z 17016G21KT 33/18 A2985 RMK A01 T03250184  RH  043%=      5-min Rain = 0
KLO1 231811Z 18023G28KT 33/18 A2985 RMK A01 T03270181  RH  042%=      5-min Rain = 0
KLO1 231812Z 18021G26KT 33/18 A2985 RMK A01 T03250181  RH  042%=      5-min Rain = 0
KLO1 231813Z 18020KT 33/18 A2985 RMK A01 T03250180  RH  042%=      5-min Rain = 0
KLO1 231814Z 17015G20KT 32/18 A2985 RMK A01 T03220176  RH  042%=      5-min Rain = 0
KLO1 231815Z 17016G21KT 32/18 A2984 RMK A01 T03210180  RH  043%=      5-min Rain = 0
KLO1 231816Z 17019G26KT 32/18 A2984 RMK A01 T03210178  RH  043%=      5-min Rain = 0
KLO1 231817Z 17021KT 32/18 A2984 RMK A01 T03200178  RH  043%=      5-min Rain = 0
KLO1 231818Z 17023KT 32/18 A2984 RMK A01 T03170176  RH  043%=      5-min Rain = 0
KLO1 231819Z 17020KT 32/18 A2984 RMK A01 T03180175  RH  042%=      5-min Rain = 0
KLO1 231820Z 18018KT 32/18 A2984 RMK A01 T03210175  RH  042%=      5-min Rain = 0
KLO1 231821Z 17016KT 32/18 A2984 RMK A01 T03210176  RH  042%=      5-min Rain = 0
KLO1 231822Z 16023G28KT 32/18 A2984 RMK A01 T03220179  RH  043%=      5-min Rain = 0
KLO1 231823Z 16019KT 32/18 A2984 RMK A01 T03220179  RH  043%=      5-min Rain = 0
KLO1 231824Z 17020KT 32/18 A2984 RMK A01 T03210178  RH  043%=      5-min Rain = 0
KLO1 231825Z 17020G25KT 32/18 A2984 RMK A01 T03240177  RH  042%=      5-min Rain = 0
KLO1 231826Z 17020KT 33/18 A2984 RMK A01 T03270177  RH  041%=      5-min Rain = 0
KLO1 231827Z 17022G27KT 33/18 A2984 RMK A01 T03260178  RH  041%=      5-min Rain = 0
KLO1 231828Z 17021G26KT 33/18 A2984 RMK A01 T03260178  RH  041%=      5-min Rain = 0
KLO1 231829Z 18023KT 33/18 A2984 RMK A01 T03290175  RH  040%=      5-min Rain = 0
KLO1 231830Z 18020KT 33/17 A2984 RMK A01 T03280174  RH  040%=      5-min Rain = 0
KLO1 231831Z 18021KT 33/18 A2984 RMK A01 T03280175  RH  040%=      5-min Rain = 0
KLO1 231832Z 18019KT 33/17 A2984 RMK A01 T03280172  RH  039%=      5-min Rain = 0
KLO1 231833Z 18018KT 33/17 A2983 RMK A01 T03250174  RH  041%=      5-min Rain = 0
KLO1 231834Z 19019G27KT 33/18 A2983 RMK A01 T03250177  RH  041%=      5-min Rain = 0
KLO1 231835Z 16021KT 33/18 A2983 RMK A01 T03280179  RH  041%=      5-min Rain = 0
KLO1 231836Z 16020KT 33/18 A2983 RMK A01 T03290178  RH  041%=      5-min Rain = 0
KLO1 231837Z 17020KT 33/17 A2983 RMK A01 T03280174  RH  040%=      5-min Rain = 0
KLO1 231838Z 16022KT 33/17 A2983 RMK A01 T03290169  RH  038%=      5-min Rain = 0
KLO1 231839Z 17018G24KT 33/17 A2983 RMK A01 T03290168  RH  038%=      5-min Rain = 0
KLO1 231840Z 17015KT 33/17 A2983 RMK A01 T03320168  RH  038%=      5-min Rain = 0
KLO1 231841Z 16017G25KT 33/17 A2983 RMK A01 T03280168  RH  038%=      5-min Rain = 0
KLO1 231842Z 17023KT 33/17 A2983 RMK A01 T03280166  RH  038%=      5-min Rain = 0
KLO1 231843Z 18017KT 33/16 A2983 RMK A01 T03310164  RH  037%=      5-min Rain = 0
KLO1 231844Z 18017KT 33/16 A2983 RMK A01 T03320164  RH  037%=      5-min Rain = 0
KLO1 231845Z 18021G27KT 33/17 A2983 RMK A01 T03310168  RH  038%=      5-min Rain = 0
KLO1 231846Z 18024G29KT 33/17 A2982 RMK A01 T03310170  RH  038%=      5-min Rain = 0
KLO1 231847Z 16022KT 33/17 A2983 RMK A01 T03310174  RH  039%=      5-min Rain = 0
KLO1 231848Z 17018KT 33/17 A2983 RMK A01 T03310174  RH  039%=      5-min Rain = 0
KLO1 231849Z 17019KT 33/18 A2983 RMK A01 T03290175  RH  040%=      5-min Rain = 0
KLO1 231850Z 17019G24KT 33/18 A2982 RMK A01 T03280175  RH  040%=      5-min Rain = 0
KLO1 231851Z 16022G30KT 33/18 A2982 RMK A01 T03290175  RH  040%=      5-min Rain = 0
KLO1 231852Z 15022KT 33/17 A2982 RMK A01 T03300173  RH  039%=      5-min Rain = 0
KLO1 231853Z 16020KT 33/17 A2982 RMK A01 T03300172  RH  039%=      5-min Rain = 0
KLO1 231854Z 15018KT 33/17 A2982 RMK A01 T03290171  RH  039%=      5-min Rain = 0
KLO1 231855Z 15018KT 33/17 A2982 RMK A01 T03290172  RH  039%=      5-min Rain = 0
KLO1 231856Z 15023G28KT 33/17 A2982 RMK A01 T03290172  RH  039%=      5-min Rain = 0
KLO1 231857Z 17022G27KT 33/17 A2982 RMK A01 T03280174  RH  040%=      5-min Rain = 0
KLO1 231858Z 16021KT 33/18 A2982 RMK A01 T03300175  RH  040%=      5-min Rain = 0
KLO1 231859Z 17017G23KT 33/18 A2982 RMK A01 T03320175  RH  039%=      5-min Rain = 0
KLO1 231900Z 18022KT 33/18 A2982 RMK A01 T03340175  RH  039%=      5-min Rain = 0
KLO1 231901Z 18021KT 33/17 A2982 RMK A01 T03340170  RH  038%=      5-min Rain = 0
KLO1 231902Z 18019G26KT 33/17 A2982 RMK A01 T03320170  RH  038%=      5-min Rain = 0
KLO1 231903Z 18019G24KT 33/17 A2982 RMK A01 T03310170  RH  038%=      5-min Rain = 0
KLO1 231904Z 18019KT 33/17 A2982 RMK A01 T03270169  RH  039%=      5-min Rain = 0
KLO1 231905Z 17019KT 32/17 A2982 RMK A01 T03230170  RH  040%=      5-min Rain = 0
KLO1 231906Z 16015G21KT 33/17 A2982 RMK A01 T03260174  RH  040%=      5-min Rain = 0
KLO1 231907Z 15021G27KT 33/18 A2982 RMK A01 T03330175  RH  039%=      5-min Rain = 0
KLO1 231908Z 16023KT 33/17 A2982 RMK A01 T03320173  RH  039%=      5-min Rain = 0
KLO1 231909Z 16020KT 33/17 A2982 RMK A01 T03280170  RH  039%=      5-min Rain = 0
KLO1 231910Z 15022G28KT 33/17 A2981 RMK A01 T03290172  RH  039%=      5-min Rain = 0
KLO1 231911Z 17023KT 33/17 A2981 RMK A01 T03310173  RH  039%=      5-min Rain = 0
KLO1 231912Z 17023KT 33/17 A2981 RMK A01 T03310173  RH  039%=      5-min Rain = 0
KLO1 231913Z 17022KT 33/17 A2981 RMK A01 T03310173  RH  039%=      5-min Rain = 0
KLO1 231914Z 15024KT 33/17 A2981 RMK A01 T03330173  RH  038%=      5-min Rain = 0
KLO1 231915Z 15020G25KT 33/17 A2981 RMK A01 T03320171  RH  038%=      5-min Rain = 0
KLO1 231916Z 16020G26KT 33/17 A2981 RMK A01 T03300170  RH  039%=      5-min Rain = 0
KLO1 231917Z 16024KT 33/17 A2981 RMK A01 T03310169  RH  038%=      5-min Rain = 0
KLO1 231918Z 16020G25KT 33/17 A2981 RMK A01 T03310170  RH  038%=      5-min Rain = 0
KLO1 231919Z 16023G30KT 33/17 A2981 RMK A01 T03330172  RH  038%=      5-min Rain = 0
KLO1 231920Z 16020KT 33/17 A2981 RMK A01 T03340171  RH  038%=      5-min Rain = 0
KLO1 231921Z 16019KT 34/17 A2981 RMK A01 T03350169  RH  037%=      5-min Rain = 0
KLO1 231922Z 15019KT 33/17 A2981 RMK A01 T03340167  RH  037%=      5-min Rain = 0
KLO1 231923Z 16023G29KT 33/17 A2981 RMK A01 T03320169  RH  038%=      5-min Rain = 0
KLO1 231924Z 16020KT 33/17 A2981 RMK A01 T03320168  RH  037%=      5-min Rain = 0
KLO1 231925Z 15017KT 33/17 A2981 RMK A01 T03330169  RH  038%=      5-min Rain = 0
KLO1 231926Z 15019KT 33/17 A2981 RMK A01 T03340170  RH  037%=      5-min Rain = 0
KLO1 231927Z 17018KT 34/17 A2981 RMK A01 T03350169  RH  037%=      5-min Rain = 0
KLO1 231928Z 15017KT 34/17 A298 RMK A01 T03350170  RH  037%=      5-min Rain = 0
KLO1 231929Z 15017G22KT 34/17 A298 RMK A01 T03360170  RH  037%=      5-min Rain = 0
KLO1 231930Z 16017KT 34/17 A298 RMK A01 T03410171  RH  036%=      5-min Rain = 0
KLO1 231931Z 15022G27KT 34/17 A2981 RMK A01 T03430167  RH  035%=      5-min Rain = 0
KLO1 231932Z 16018G26KT 34/17 A2981 RMK A01 T03380166  RH  036%=      5-min Rain = 0
KLO1 231933Z 16025G30KT 34/17 A298 RMK A01 T03390167  RH  036%=      5-min Rain = 0
KLO1 231934Z 16019G25KT 34/17 A2981 RMK A01 T03380166  RH  036%=      5-min Rain = 0
KLO1 231935Z 16018KT 34/17 A298 RMK A01 T03370166  RH  036%=      5-min Rain = 0
KLO1 231936Z 16021KT 33/17 A298 RMK A01 T03340165  RH  037%=      5-min Rain = 0
KLO1 231937Z 17020KT 33/16 A298 RMK A01 T03330164  RH  036%=      5-min Rain = 0
KLO1 231938Z 18019KT 33/16 A298 RMK A01 T03310163  RH  037%=      5-min Rain = 0
KLO1 231939Z 16019KT 33/17 A298 RMK A01 T03310165  RH  037%=      5-min Rain = 0
KLO1 231940Z 16020KT 34/17 A298 RMK A01 T03350168  RH  037%=      5-min Rain = 0
KLO1 231941Z 16020KT 33/17 A298 RMK A01 T03340169  RH  037%=      5-min Rain = 0
KLO1 231942Z 16019KT 33/17 A298 RMK A01 T03320170  RH  038%=      5-min Rain = 0
KLO1 231943Z 17018G24KT 34/17 A298 RMK A01 T03350170  RH  037%=      5-min Rain = 0
KLO1 231944Z 17021KT 34/17 A298 RMK A01 T03360166  RH  036%=      5-min Rain = 0
KLO1 231945Z 16020KT 33/16 A298 RMK A01 T03340163  RH  036%=      5-min Rain = 0
KLO1 231946Z 17015G20KT 33/16 A298 RMK A01 T03300164  RH  037%=      5-min Rain = 0
KLO1 231947Z 18022G28KT 33/17 A298 RMK A01 T03300166  RH  037%=      5-min Rain = 0
KLO1 231948Z 18024G29KT 33/17 A298 RMK A01 T03280167  RH  038%=      5-min Rain = 0
KLO1 231949Z 18024KT 33/17 A298 RMK A01 T03270167  RH  038%=      5-min Rain = 0
KLO1 231950Z 17021KT 33/17 A298 RMK A01 T03250166  RH  039%=      5-min Rain = 0
KLO1 231951Z 17018KT 33/17 A298 RMK A01 T03260168  RH  039%=      5-min Rain = 0
KLO1 231952Z 15019KT 33/17 A298 RMK A01 T03300170  RH  039%=      5-min Rain = 0
KLO1 231953Z 15022KT 33/17 A298 RMK A01 T03330170  RH  038%=      5-min Rain = 0
KLO1 231954Z 17021G29KT 33/17 A298 RMK A01 T03330170  RH  038%=      5-min Rain = 0
KLO1 231955Z 18024KT 33/17 A298 RMK A01 T03340170  RH  038%=      5-min Rain = 0
KLO1 231956Z 18022KT 34/17 A298 RMK A01 T03350170  RH  037%=      5-min Rain = 0
KLO1 231957Z 18020G27KT 34/17 A298 RMK A01 T03350170  RH  037%=      5-min Rain = 0
KLO1 231958Z 18025KT 33/17 A2979 RMK A01 T03340171  RH  038%=      5-min Rain = 0
KLO1 231959Z 18020KT 34/17 A2979 RMK A01 T03350172  RH  038%=      5-min Rain = 0
KLO1 232000Z 18018G23KT 34/17 A2979 RMK A01 T03350171  RH  038%=      5-min Rain = 0
KLO1 232001Z 16022KT 34/17 A2979 RMK A01 T03360171  RH  037%=      5-min Rain = 0
KLO1 232002Z 16020KT 34/17 A2979 RMK A01 T03370169  RH  037%=      5-min Rain = 0
KLO1 232003Z 15019KT 34/17 A2979 RMK A01 T03370170  RH  037%=      5-min Rain = 0
KLO1 232004Z 16022KT 34/17 A2979 RMK A01 T03360169  RH  037%=      5-min Rain = 0
KLO1 232005Z 16022KT 34/17 A2979 RMK A01 T03350166  RH  037%=      5-min Rain = 0
KLO1 232006Z 16022KT 33/17 A2979 RMK A01 T03330165  RH  037%=      5-min Rain = 0
KLO1 232007Z 18020G25KT 33/17 A2979 RMK A01 T03340165  RH  037%=      5-min Rain = 0
KLO1 232008Z 17016KT 34/16 A2979 RMK A01 T03350164  RH  036%=      5-min Rain = 0
KLO1 232009Z 16023KT 34/17 A2979 RMK A01 T03380168  RH  036%=      5-min Rain = 0
KLO1 232010Z 16022KT 34/17 A2979 RMK A01 T03380167  RH  036%=      5-min Rain = 0
KLO1 232011Z 16021G26KT 34/17 A2979 RMK A01 T03360167  RH  037%=      5-min Rain = 0
KLO1 232012Z 16023KT 34/17 A2979 RMK A01 T03350166  RH  036%=      5-min Rain = 0
KLO1 232013Z 15020KT 33/16 A2979 RMK A01 T03340163  RH  036%=      5-min Rain = 0
KLO1 232014Z 16022KT 34/16 A2979 RMK A01 T03350163  RH  036%=      5-min Rain = 0
KLO1 232015Z 16021G26KT 34/17 A2979 RMK A01 T03370166  RH  036%=      5-min Rain = 0
KLO1 232016Z 15021KT 34/17 A2979 RMK A01 T03370167  RH  036%=      5-min Rain = 0
KLO1 232017Z 17023KT 34/17 A2979 RMK A01 T03390167  RH  036%=      5-min Rain = 0
KLO1 232018Z 17021KT 34/16 A2978 RMK A01 T03400163  RH  035%=      5-min Rain = 0
KLO1 232019Z 17019KT 34/16 A2978 RMK A01 T03390163  RH  035%=      5-min Rain = 0
KLO1 232020Z 17021G28KT 34/16 A2978 RMK A01 T03400164  RH  035%=      5-min Rain = 0
KLO1 232021Z 17023KT 34/17 A2978 RMK A01 T03420168  RH  036%=      5-min Rain = 0
KLO1 232022Z 15023KT 34/17 A2978 RMK A01 T03390168  RH  036%=      5-min Rain = 0
KLO1 232023Z 16021KT 34/17 A2978 RMK A01 T03370168  RH  036%=      5-min Rain = 0
KLO1 232024Z 16023G28KT 34/17 A2978 RMK A01 T03380169  RH  036%=      5-min Rain = 0
KLO1 232025Z 17025KT 34/17 A2978 RMK A01 T03390167  RH  036%=      5-min Rain = 0
KLO1 232026Z 15021KT 34/17 A2978 RMK A01 T03390166  RH  036%=      5-min Rain = 0
KLO1 232027Z 15020KT 34/16 A2978 RMK A01 T03380164  RH  035%=      5-min Rain = 0
KLO1 232028Z 15017KT 34/16 A2978 RMK A01 T03390164  RH  035%=      5-min Rain = 0
KLO1 232029Z 17020G26KT 34/17 A2978 RMK A01 T03410165  RH  035%=      5-min Rain = 0
KLO1 232030Z 17020KT 34/16 A2978 RMK A01 T03410161  RH  034%=      5-min Rain = 0
KLO1 232031Z 18018G24KT 34/16 A2978 RMK A01 T03400161  RH  034%=      5-min Rain = 0
KLO1 232032Z 17019G27KT 34/16 A2978 RMK A01 T03400164  RH  035%=      5-min Rain = 0
KLO1 232033Z 17024KT 34/17 A2978 RMK A01 T03400166  RH  035%=      5-min Rain = 0
KLO1 232034Z 17021KT 34/17 A2978 RMK A01 T03400167  RH  036%=      5-min Rain = 0
KLO1 232035Z 16023KT 34/17 A2978 RMK A01 T03390167  RH  036%=      5-min Rain = 0
KLO1 232036Z 17023KT 34/16 A2978 RMK A01 T03400164  RH  035%=      5-min Rain = 0
KLO1 232037Z 18021KT 34/16 A2978 RMK A01 T03380160  RH  034%=      5-min Rain = 0
KLO1 232038Z 17019G24KT 34/16 A2978 RMK A01 T03380157  RH  034%=      5-min Rain = 0
KLO1 232039Z 17017KT 34/16 A2978 RMK A01 T03380158  RH  034%=      5-min Rain = 0
KLO1 232040Z 15019G24KT 34/16 A2978 RMK A01 T03380161  RH  035%=      5-min Rain = 0
KLO1 232041Z 15027KT 34/16 A2977 RMK A01 T03400164  RH  035%=      5-min Rain = 0
KLO1 232042Z 16025G30KT 34/16 A2977 RMK A01 T03390163  RH  035%=      5-min Rain = 0
KLO1 232043Z 17021KT 34/16 A2977 RMK A01 T03390163  RH  035%=      5-min Rain = 0
KLO1 232044Z 17022KT 34/16 A2977 RMK A01 T03400162  RH  035%=      5-min Rain = 0
KLO1 232045Z 17022G27KT 34/16 A2977 RMK A01 T03370160  RH  035%=      5-min Rain = 0
KLO1 232046Z 17017KT 34/16 A2977 RMK A01 T03350160  RH  035%=      5-min Rain = 0
KLO1 232047Z 17018KT 34/16 A2977 RMK A01 T03360162  RH  035%=      5-min Rain = 0
KLO1 232048Z 18018KT 34/16 A2977 RMK A01 T03370163  RH  035%=      5-min Rain = 0
KLO1 232049Z 17019KT 34/17 A2977 RMK A01 T03390165  RH  035%=      5-min Rain = 0
KLO1 232050Z 16022KT 34/17 A2977 RMK A01 T03420166  RH  035%=      5-min Rain = 0
KLO1 232051Z 14022KT 34/16 A2977 RMK A01 T03420164  RH  035%=      5-min Rain = 0
KLO1 232052Z 15021G26KT 34/16 A2977 RMK A01 T03410162  RH  034%=      5-min Rain = 0
KLO1 232053Z 16024KT 34/16 A2977 RMK A01 T03440161  RH  034%=      5-min Rain = 0
KLO1 232054Z 17023KT 34/16 A2977 RMK A01 T03420161  RH  034%=      5-min Rain = 0
KLO1 232055Z 16022KT 34/16 A2977 RMK A01 T03420161  RH  034%=      5-min Rain = 0
KLO1 232056Z 15017G23KT 34/16 A2977 RMK A01 T03400160  RH  034%=      5-min Rain = 0
KLO1 232057Z 17020G25KT 34/16 A2977 RMK A01 T03390160  RH  034%=      5-min Rain = 0
KLO1 232058Z 16024KT 34/16 A2976 RMK A01 T03400158  RH  034%=      5-min Rain = 0
KLO1 232059Z 16022KT 34/16 A2976 RMK A01 T03410155  RH  033%=      5-min Rain = 0
KLO1 232100Z 15024KT 34/16 A2976 RMK A01 T03420155  RH  033%=      5-min Rain = 0
KLO1 232101Z 16023KT 34/16 A2977 RMK A01 T03430157  RH  033%=      5-min Rain = 0
KLO1 232102Z 16021KT 34/16 A2977 RMK A01 T03430157  RH  033%=      5-min Rain = 0
KLO1 232103Z 16020KT 34/16 A2977 RMK A01 T03400155  RH  033%=      5-min Rain = 0
KLO1 232104Z 15021KT 34/15 A2977 RMK A01 T03370154  RH  033%=      5-min Rain = 0
KLO1 232105Z 16021KT 34/16 A2977 RMK A01 T03370159  RH  034%=      5-min Rain = 0
KLO1 232106Z 17020KT 34/16 A2977 RMK A01 T03360163  RH  036%=      5-min Rain = 0
KLO1 232107Z 17020KT 34/16 A2976 RMK A01 T03380164  RH  035%=      5-min Rain = 0
KLO1 232108Z 16023G29KT 34/16 A2976 RMK A01 T03430164  RH  034%=      5-min Rain = 0
KLO1 232109Z 18024KT 34/16 A2976 RMK A01 T03430162  RH  034%=      5-min Rain = 0
KLO1 232110Z 17026KT 34/16 A2976 RMK A01 T03420160  RH  034%=      5-min Rain = 0
KLO1 232111Z 16024KT 34/16 A2976 RMK A01 T03420160  RH  034%=      5-min Rain = 0
KLO1 232112Z 17023G29KT 34/16 A2976 RMK A01 T03380157  RH  034%=      5-min Rain = 0
KLO1 232113Z 16026G32KT 34/16 A2976 RMK A01 T03360158  RH  034%=      5-min Rain = 0
KLO1 232114Z 17027KT 34/16 A2976 RMK A01 T03370160  RH  035%=      5-min Rain = 0
KLO1 232115Z 16022G27KT 34/16 A2976 RMK A01 T03380161  RH  035%=      5-min Rain = 0
KLO1 232116Z 16024G29KT 34/16 A2976 RMK A01 T03400163  RH  035%=      5-min Rain = 0
KLO1 232117Z 17024KT 34/16 A2976 RMK A01 T03390161  RH  034%=      5-min Rain = 0
KLO1 232118Z 16021G26KT 34/16 A2976 RMK A01 T03360160  RH  035%=      5-min Rain = 0
KLO1 232119Z 17021G26KT 34/16 A2976 RMK A01 T03360161  RH  035%=      5-min Rain = 0
KLO1 232120Z 17022KT 34/16 A2976 RMK A01 T03400163  RH  035%=      5-min Rain = 0
KLO1 232121Z 18023G28KT 34/16 A2976 RMK A01 T03430161  RH  034%=      5-min Rain = 0
KLO1 232122Z 18022KT 34/16 A2976 RMK A01 T03430160  RH  034%=      5-min Rain = 0
KLO1 232123Z 18022G30KT 34/16 A2976 RMK A01 T03420160  RH  034%=      5-min Rain = 0
KLO1 232124Z 17026KT 34/16 A2975 RMK A01 T03410161  RH  034%=      5-min Rain = 0
KLO1 232125Z 17025KT 34/16 A2975 RMK A01 T03400162  RH  035%=      5-min Rain = 0
KLO1 232126Z 18021G26KT 34/16 A2975 RMK A01 T03410163  RH  035%=      5-min Rain = 0
KLO1 232127Z 17024KT 34/16 A2975 RMK A01 T03420161  RH  034%=      5-min Rain = 0
KLO1 232128Z 17022G29KT 34/16 A2975 RMK A01 T03410159  RH  034%=      5-min Rain = 0
KLO1 232129Z 17025KT 34/16 A2975 RMK A01 T03420156  RH  033%=      5-min Rain = 0
KLO1 232130Z 18025G30KT 34/15 A2975 RMK A01 T03390153  RH  033%=      5-min Rain = 0
KLO1 232131Z 17022KT 34/15 A2975 RMK A01 T03360154  RH  034%=      5-min Rain = 0
KLO1 232132Z 17025KT 34/16 A2975 RMK A01 T03380156  RH  034%=      5-min Rain = 0
KLO1 232133Z 17023G30KT 34/16 A2975 RMK A01 T03400158  RH  034%=      5-min Rain = 0
KLO1 232134Z 17022G27KT 34/16 A2975 RMK A01 T03390159  RH  034%=      5-min Rain = 0
KLO1 232135Z 17020G25KT 34/16 A2975 RMK A01 T03390158  RH  034%=      5-min Rain = 0
KLO1 232136Z 18026G32KT 34/16 A2975 RMK A01 T03380158  RH  034%=      5-min Rain = 0
KLO1 232137Z 18026G32KT 34/16 A2975 RMK A01 T03380155  RH  033%=      5-min Rain = 0
KLO1 232138Z 19022G27KT 34/16 A2975 RMK A01 T03380156  RH  034%=      5-min Rain = 0
KLO1 232139Z 19022KT 34/16 A2974 RMK A01 T03380158  RH  034%=      5-min Rain = 0
KLO1 232140Z 18017KT 34/16 A2975 RMK A01 T03370158  RH  034%=      5-min Rain = 0
KLO1 232141Z 16020KT 34/16 A2974 RMK A01 T03390161  RH  035%=      5-min Rain = 0
KLO1 232142Z 16022KT 34/16 A2974 RMK A01 T03430163  RH  034%=      5-min Rain = 0
KLO1 232143Z 17023G30KT 34/16 A2974 RMK A01 T03430160  RH  034%=      5-min Rain = 0
KLO1 232144Z 17026KT 34/16 A2974 RMK A01 T03430158  RH  033%=      5-min Rain = 0
KLO1 232145Z 16021G26KT 34/16 A2974 RMK A01 T03400157  RH  034%=      5-min Rain = 0
KLO1 232146Z 16028KT 34/16 A2974 RMK A01 T03410158  RH  033%=      5-min Rain = 0
KLO1 232147Z 17024KT 34/16 A2974 RMK A01 T03410155  RH  033%=      5-min Rain = 0
KLO1 232148Z 17025KT 34/16 A2974 RMK A01 T03380156  RH  034%=      5-min Rain = 0
KLO1 232149Z 17023G28KT 34/15 A2974 RMK A01 T03350154  RH  034%=      5-min Rain = 0
KLO1 232150Z 18023KT 33/16 A2974 RMK A01 T03330159  RH  035%=      5-min Rain = 0
KLO1 232151Z 17024G30KT 33/16 A2974 RMK A01 T03340161  RH  035%=      5-min Rain = 0
KLO1 232152Z 17022G27KT 34/16 A2974 RMK A01 T03350161  RH  035%=      5-min Rain = 0
KLO1 232153Z 18023KT 34/16 A2974 RMK A01 T03350161  RH  035%=      5-min Rain = 0
KLO1 232154Z 18025KT 34/16 A2974 RMK A01 T03380161  RH  035%=      5-min Rain = 0
KLO1 232155Z 17026KT 34/16 A2974 RMK A01 T03380160  RH  035%=      5-min Rain = 0
KLO1 232156Z 17026KT 34/16 A2974 RMK A01 T03370159  RH  035%=      5-min Rain = 0
KLO1 232157Z 17023KT 34/16 A2974 RMK A01 T03350160  RH  035%=      5-min Rain = 0
KLO1 232158Z 17026G32KT 34/16 A2973 RMK A01 T03350163  RH  036%=      5-min Rain = 0
KLO1 232159Z 17030KT 34/16 A2973 RMK A01 T03370164  RH  036%=      5-min Rain = 0
KLO1 232200Z 16029G35KT 34/16 A2973 RMK A01 T03350164  RH  036%=      5-min Rain = 0
KLO1 232201Z 17029G35KT 34/17 A2973 RMK A01 T03350166  RH  036%=      5-min Rain = 0
KLO1 232202Z 17029KT 33/17 A2973 RMK A01 T03340165  RH  036%=      5-min Rain = 0
KLO1 232203Z 17024G30KT 33/17 A2974 RMK A01 T03330166  RH  037%=      5-min Rain = 0
KLO1 232204Z 18027KT 34/17 A2973 RMK A01 T03350166  RH  037%=      5-min Rain = 0
KLO1 232205Z 18029KT 33/17 A2973 RMK A01 T03330165  RH  037%=      5-min Rain = 0
KLO1 232206Z 18028G33KT 33/17 A2973 RMK A01 T03300166  RH  037%=      5-min Rain = 0
KLO1 232207Z 18026G31KT 33/17 A2973 RMK A01 T03290165  RH  037%=      5-min Rain = 0
KLO1 232208Z 17027G33KT 33/17 A2973 RMK A01 T03280165  RH  038%=      5-min Rain = 0
KLO1 232209Z 17029G34KT 33/16 A2973 RMK A01 T03280164  RH  037%=      5-min Rain = 0
KLO1 232210Z 17024G30KT 33/17 A2973 RMK A01 T03270165  RH  038%=      5-min Rain = 0
KLO1 232211Z 17024G31KT 33/16 A2973 RMK A01 T03280164  RH  037%=      5-min Rain = 0
KLO1 232212Z 18029KT 33/16 A2973 RMK A01 T03280162  RH  037%=      5-min Rain = 0
KLO1 232213Z 17028KT 33/16 A2973 RMK A01 T03260162  RH  037%=      5-min Rain = 0
KLO1 232214Z 17026KT 32/16 A2973 RMK A01 T03240163  RH  038%=      5-min Rain = 0
KLO1 232215Z 17023KT 33/16 A2973 RMK A01 T03250163  RH  038%=      5-min Rain = 0
KLO1 232216Z 18026KT 33/16 A2973 RMK A01 T03250162  RH  038%=      5-min Rain = 0
KLO1 232217Z 18022G29KT 32/16 A2973 RMK A01 T03240163  RH  038%=      5-min Rain = 0
KLO1 232218Z 18027G34KT 33/16 A2973 RMK A01 T03250163  RH  038%=      5-min Rain = 0
KLO1 232219Z 18033KT 32/16 A2973 RMK A01 T03230160  RH  038%=      5-min Rain = 0
KLO1 232220Z 19028G34KT 32/16 A2973 RMK A01 T03210161  RH  038%=      5-min Rain = 0
KLO1 232221Z 18027KT 32/16 A2973 RMK A01 T03210161  RH  038%=      5-min Rain = 0
KLO1 232222Z 19026G31KT 32/16 A2973 RMK A01 T03200162  RH  039%=      5-min Rain = 0
KLO1 232223Z 19024G30KT 32/16 A2973 RMK A01 T03190164  RH  039%=      5-min Rain = 0
KLO1 232224Z 18025G33KT 32/16 A2973 RMK A01 T03190164  RH  039%=      5-min Rain = 0
KLO1 232225Z 18023G29KT 32/17 A2973 RMK A01 T03200165  RH  040%=      5-min Rain = 0
KLO1 232226Z 18024KT 32/17 A2973 RMK A01 T03210166  RH  039%=      5-min Rain = 0
KLO1 232227Z 17022G29KT 32/17 A2973 RMK A01 T03210165  RH  039%=      5-min Rain = 0
KLO1 232228Z 18025G30KT 32/17 A2973 RMK A01 T03210165  RH  039%=      5-min Rain = 0
KLO1 232229Z 17028G35KT 32/17 A2973 RMK A01 T03210166  RH  039%=      5-min Rain = 0
KLO1 232230Z 18026G32KT 32/17 A2973 RMK A01 T03200166  RH  040%=      5-min Rain = 0
KLO1 232231Z 18025G31KT 32/17 A2973 RMK A01 T03200167  RH  040%=      5-min Rain = 0
KLO1 232232Z 18025G32KT 32/17 A2973 RMK A01 T03190167  RH  040%=      5-min Rain = 0
KLO1 232233Z 18025G30KT 32/17 A2973 RMK A01 T03190167  RH  040%=      5-min Rain = 0
KLO1 232234Z 18028KT 32/17 A2973 RMK A01 T03190167  RH  040%=      5-min Rain = 0
KLO1 232235Z 18026KT 32/17 A2973 RMK A01 T03190167  RH  040%=      5-min Rain = 0
KLO1 232236Z 17031G37KT 32/17 A2973 RMK A01 T03190165  RH  040%=      5-min Rain = 0
KLO1 232237Z 18030KT 32/16 A2973 RMK A01 T03170164  RH  040%=      5-min Rain = 0
KLO1 232238Z 18026KT 32/16 A2973 RMK A01 T03160164  RH  040%=      5-min Rain = 0
KLO1 232239Z 18028KT 32/17 A2973 RMK A01 T03160165  RH  040%=      5-min Rain = 0
KLO1 232240Z 18026KT 32/17 A2973 RMK A01 T03150165  RH  041%=      5-min Rain = 0
KLO1 232241Z 18026KT 32/17 A2973 RMK A01 T03150165  RH  041%=      5-min Rain = 0
KLO1 232242Z 18027G32KT 32/17 A2973 RMK A01 T03150167  RH  041%=      5-min Rain = 0
KLO1 232243Z 18025G32KT 32/17 A2972 RMK A01 T03150167  RH  041%=      5-min Rain = 0
KLO1 232244Z 18023G30KT 32/17 A2973 RMK A01 T03150167  RH  041%=      5-min Rain = 0
KLO1 232245Z 18027G32KT 32/17 A2972 RMK A01 T03150167  RH  041%=      5-min Rain = 0
KLO1 232246Z 18029G38KT 32/17 A2972 RMK A01 T03150167  RH  041%=      5-min Rain = 0
KLO1 232247Z 18030G36KT 31/17 A2972 RMK A01 T03140166  RH  041%=      5-min Rain = 0
KLO1 232248Z 18031G36KT 31/16 A2972 RMK A01 T03120164  RH  041%=      5-min Rain = 0
KLO1 232249Z 18028G34KT 31/16 A2972 RMK A01 T03110164  RH  041%=      5-min Rain = 0
KLO1 232250Z 18032KT 31/17 A2971 RMK A01 T03100165  RH  042%=      5-min Rain = 0
KLO1 232251Z 18025G31KT 31/16 A2972 RMK A01 T03090164  RH  042%=      5-min Rain = 0
KLO1 232252Z 18026G32KT 31/17 A2972 RMK A01 T03090165  RH  042%=      5-min Rain = 0
KLO1 232253Z 18029G35KT 31/17 A2971 RMK A01 T03090166  RH  042%=      5-min Rain = 0
KLO1 232254Z 18025KT 31/17 A2972 RMK A01 T03090166  RH  042%=      5-min Rain = 0
KLO1 232255Z 18028KT 31/17 A2972 RMK A01 T03080166  RH  042%=      5-min Rain = 0
KLO1 232256Z 18026KT 31/17 A2972 RMK A01 T03070165  RH  042%=      5-min Rain = 0
KLO1 232257Z 18029G34KT 31/17 A2972 RMK A01 T03070166  RH  043%=      5-min Rain = 0
KLO1 232258Z 19027G35KT 31/17 A2973 RMK A01 T03060166  RH  043%=      5-min Rain = 0
KLO1 232259Z 19028KT 31/17 A2973 RMK A01 T03060166  RH  043%=      5-min Rain = 0
KLO1 232300Z 18026G31KT 31/17 A2973 RMK A01 T03060166  RH  043%=      5-min Rain = 0
KLO1 232301Z 18027KT 31/17 A2973 RMK A01 T03050166  RH  043%=      5-min Rain = 0
KLO1 232302Z 18026G33KT 31/17 A2973 RMK A01 T03050166  RH  043%=      5-min Rain = 0
KLO1 232303Z 18028KT 31/17 A2973 RMK A01 T03050166  RH  043%=      5-min Rain = 0
KLO1 232304Z 18029KT 30/17 A2974 RMK A01 T03040166  RH  043%=      5-min Rain = 0
KLO1 232305Z 18028G33KT 30/17 A2974 RMK A01 T03040166  RH  043%=      5-min Rain = 0
KLO1 232306Z 19027G32KT 30/17 A2973 RMK A01 T03040165  RH  043%=      5-min Rain = 0
KLO1 232307Z 18028G34KT 30/17 A2974 RMK A01 T03040165  RH  043%=      5-min Rain = 0
KLO1 232308Z 18028KT 30/17 A2974 RMK A01 T03030165  RH  043%=      5-min Rain = 0
KLO1 232309Z 18024G30KT 30/17 A2974 RMK A01 T03030165  RH  043%=      5-min Rain = 0
KLO1 232310Z 18026G32KT 30/17 A2974 RMK A01 T03030166  RH  044%=      5-min Rain = 0
KLO1 232311Z 18024G29KT 30/17 A2974 RMK A01 T03030166  RH  044%=      5-min Rain = 0
KLO1 232312Z 18025KT 30/17 A2974 RMK A01 T03030165  RH  044%=      5-min Rain = 0
KLO1 232313Z 18021KT 30/17 A2974 RMK A01 T03030166  RH  044%=      5-min Rain = 0
KLO1 232314Z 19028KT 30/17 A2974 RMK A01 T03030166  RH  044%=      5-min Rain = 0
KLO1 232315Z 18024KT 30/17 A2974 RMK A01 T03030166  RH  044%=      5-min Rain = 0
KLO1 232316Z 18025KT 30/17 A2974 RMK A01 T03030166  RH  044%=      5-min Rain = 0
KLO1 232317Z 18021KT 30/17 A2974 RMK A01 T03030166  RH  044%=      5-min Rain = 0
KLO1 232318Z 19022KT 30/17 A2974 RMK A01 T03030166  RH  044%=      5-min Rain = 0
KLO1 232319Z 19026KT 30/17 A2974 RMK A01 T03030166  RH  044%=      5-min Rain = 0
KLO1 232320Z 18024KT 30/17 A2974 RMK A01 T03030166  RH  044%=      5-min Rain = 0
KLO1 232321Z 19024KT 30/17 A2974 RMK A01 T03030166  RH  044%=      5-min Rain = 0
KLO1 232322Z 19023KT 30/17 A2974 RMK A01 T03030166  RH  044%=      5-min Rain = 0
KLO1 232323Z 18020KT 30/17 A2974 RMK A01 T03030166  RH  044%=      5-min Rain = 0
KLO1 232324Z 18022G30KT 30/17 A2974 RMK A01 T03030166  RH  044%=      5-min Rain = 0
KLO1 232325Z 18024KT 30/17 A2974 RMK A01 T03030166  RH  044%=      5-min Rain = 0
KLO1 232326Z 18023KT 30/17 A2974 RMK A01 T03030166  RH  044%=      5-min Rain = 0
KLO1 232327Z 18023KT 30/17 A2974 RMK A01 T03030166  RH  044%=      5-min Rain = 0
KLO1 232328Z 18023KT 30/17 A2974 RMK A01 T03030166  RH  044%=      5-min Rain = 0
KLO1 232329Z 18024G29KT 30/17 A2974 RMK A01 T03020165  RH  044%=      5-min Rain = 0
KLO1 232330Z 18022G28KT 30/17 A2974 RMK A01 T03020165  RH  044%=      5-min Rain = 0
KLO1 232331Z 18018KT 30/16 A2974 RMK A01 T03020164  RH  043%=      5-min Rain = 0
KLO1 232332Z 18020G25KT 30/16 A2974 RMK A01 T03020163  RH  043%=      5-min Rain = 0
KLO1 232333Z 18021KT 30/16 A2974 RMK A01 T03020163  RH  043%=      5-min Rain = 0
KLO1 232334Z 18020G27KT 30/16 A2974 RMK A01 T03020163  RH  043%=      5-min Rain = 0
KLO1 232335Z 18022KT 30/16 A2974 RMK A01 T03020162  RH  043%=      5-min Rain = 0
KLO1 232336Z 17022KT 30/16 A2974 RMK A01 T03020162  RH  043%=      5-min Rain = 0
KLO1 232337Z 17021KT 30/16 A2974 RMK A01 T03010162  RH  043%=      5-min Rain = 0
KLO1 232338Z 17021KT 30/16 A2973 RMK A01 T03010161  RH  043%=      5-min Rain = 0
KLO1 232339Z 17017G22KT 30/16 A2973 RMK A01 T03020162  RH  043%=      5-min Rain = 0
KLO1 232340Z 17020KT 30/16 A2973 RMK A01 T03010162  RH  043%=      5-min Rain = 0
KLO1 232341Z 17019KT 30/16 A2973 RMK A01 T03010161  RH  043%=      5-min Rain = 0
KLO1 232342Z 17019KT 30/16 A2972 RMK A01 T03010162  RH  043%=      5-min Rain = 0
KLO1 232343Z 17019G24KT 30/16 A2972 RMK A01 T03010162  RH  043%=      5-min Rain = 0
KLO1 232344Z 17020KT 30/16 A2972 RMK A01 T03010161  RH  043%=      5-min Rain = 0
KLO1 232345Z 16017G22KT 30/16 A2972 RMK A01 T03010160  RH  043%=      5-min Rain = 0
KLO1 232346Z 16022KT 30/16 A2972 RMK A01 T03010158  RH  042%=      5-min Rain = 0
KLO1 232347Z 17024KT 30/16 A2971 RMK A01 T03010157  RH  042%=      5-min Rain = 0
KLO1 232348Z 16022KT 30/16 A2971 RMK A01 T03010157  RH  042%=      5-min Rain = 0
KLO1 232349Z 17019G24KT 30/16 A2971 RMK A01 T03010156  RH  041%=      5-min Rain = 0
KLO1 232350Z 17016KT 30/15 A2971 RMK A01 T03010154  RH  041%=      5-min Rain = 0
KLO1 232351Z 17022KT 30/15 A2971 RMK A01 T03010150  RH  040%=      5-min Rain = 0
KLO1 232352Z 17019G24KT 30/14 A2971 RMK A01 T03020135  RH  036%=      5-min Rain = 0
KLO1 232353Z 17019KT 30/14 A2972 RMK A01 T03030140  RH  037%=      5-min Rain = 0
KLO1 232354Z 18019KT 30/14 A2972 RMK A01 T03040140  RH  037%=      5-min Rain = 0
KLO1 232355Z 18022G27KT 30/12 A2972 RMK A01 T03040122  RH  033%=      5-min Rain = 0
KLO1 232356Z 18027G34KT 31/09 A2972 RMK A01 T03060092  RH  026%=      5-min Rain = 0
KLO1 232357Z 19031G37KT 31/08 A2972 RMK A01 T03080078  RH  024%=      5-min Rain = 0
KLO1 232358Z 20031G36KT 31/06 A2972 RMK A01 T03090064  RH  022%=      5-min Rain = 0
KLO1 232359Z 19029G35KT 31/05 A2972 RMK A01 T03090053  RH  020%=      5-min Rain = 0
KLO1 240000Z 19030G35KT 31/05 A2972 RMK A01 T03080048  RH  019%=      5-min Rain = 0
KLO1 240001Z 19025KT 31/05 A2972 RMK A01 T03070046  RH  019%=      5-min Rain = 0
KLO1 240002Z 19026G33KT 31/05 A2972 RMK A01 T03070046  RH  019%=      5-min Rain = 0
KLO1 240003Z 19029KT 31/04 A2972 RMK A01 T03070044  RH  019%=      5-min Rain = 0
KLO1 240004Z 19026KT 31/05 A2972 RMK A01 T03060045  RH  019%=      5-min Rain = 0
KLO1 240005Z 19027KT 31/04 A2972 RMK A01 T03060044  RH  019%=      5-min Rain = 0
KLO1 240006Z 19023KT 31/04 A2972 RMK A01 T03060044  RH  019%=      5-min Rain = 0
KLO1 240007Z 19022KT 31/05 A2971 RMK A01 T03060045  RH  019%=      5-min Rain = 0
KLO1 240008Z 19021KT 31/05 A2971 RMK A01 T03050046  RH  019%=      5-min Rain = 0
KLO1 240009Z 18022KT 31/05 A2971 RMK A01 T03050046  RH  019%=      5-min Rain = 0
KLO1 240010Z 18025G32KT 31/05 A2971 RMK A01 T03050046  RH  019%=      5-min Rain = 0
KLO1 240011Z 19026G31KT 31/05 A2971 RMK A01 T03050045  RH  019%=      5-min Rain = 0
KLO1 240012Z 19021KT 30/05 A2971 RMK A01 T03040045  RH  019%=      5-min Rain = 0
KLO1 240013Z 18021G27KT 30/05 A2971 RMK A01 T03040047  RH  020%=      5-min Rain = 0
KLO1 240014Z 19022KT 30/05 A2971 RMK A01 T03040046  RH  020%=      5-min Rain = 0
KLO1 240015Z 19015G20KT 30/05 A2971 RMK A01 T03040046  RH  020%=      5-min Rain = 0
KLO1 240016Z 18017KT 30/05 A2971 RMK A01 T03040047  RH  020%=      5-min Rain = 0
KLO1 240017Z 18016KT 30/05 A2971 RMK A01 T03040048  RH  020%=      5-min Rain = 0
KLO1 240018Z 18017G24KT 30/05 A2972 RMK A01 T03040049  RH  020%=      5-min Rain = 0
KLO1 240019Z 18019KT 30/05 A2972 RMK A01 T03040045  RH  019%=      5-min Rain = 0
KLO1 240020Z 20015KT 30/05 A2972 RMK A01 T03040046  RH  020%=      5-min Rain = 0
KLO1 240021Z 19014KT 30/05 A2972 RMK A01 T03040046  RH  020%=      5-min Rain = 0
KLO1 240022Z 20012KT 30/05 A2972 RMK A01 T03040047  RH  020%=      5-min Rain = 0
KLO1 240023Z 18010KT 30/05 A2972 RMK A01 T03040048  RH  020%=      5-min Rain = 0
KLO1 240024Z 19012KT 30/05 A2972 RMK A01 T03040049  RH  020%=      5-min Rain = 0
KLO1 240025Z 19014KT 30/05 A2972 RMK A01 T03040047  RH  020%=      5-min Rain = 0
KLO1 240026Z 18015KT 30/05 A2972 RMK A01 T03040046  RH  020%=      5-min Rain = 0
KLO1 240027Z 17013KT 30/05 A2972 RMK A01 T03040045  RH  019%=      5-min Rain = 0
KLO1 240028Z 18015G21KT 30/05 A2972 RMK A01 T03040046  RH  020%=      5-min Rain = 0
KLO1 240029Z 18021KT 30/05 A2971 RMK A01 T03040046  RH  020%=      5-min Rain = 0
KLO1 240030Z 18017KT 30/05 A2971 RMK A01 T03040045  RH  019%=      5-min Rain = 0
KLO1 240031Z 18018KT 30/05 A2971 RMK A01 T03040045  RH  019%=      5-min Rain = 0
KLO1 240032Z 18016KT 30/05 A2971 RMK A01 T03040046  RH  020%=      5-min Rain = 0
KLO1 240033Z 18018KT 31/05 A2971 RMK A01 T03050047  RH  020%=      5-min Rain = 0
KLO1 240034Z 19020KT 30/05 A2971 RMK A01 T03040045  RH  019%=      5-min Rain = 0
KLO1 240035Z 19018G23KT 31/05 A2971 RMK A01 T03050045  RH  019%=      5-min Rain = 0
KLO1 240036Z 19016KT 31/05 A2971 RMK A01 T03060045  RH  019%=      5-min Rain = 0
KLO1 240037Z 19019G24KT 31/04 A2971 RMK A01 T03060044  RH  019%=      5-min Rain = 0
KLO1 240038Z 18017KT 31/04 A2971 RMK A01 T03060042  RH  019%=      5-min Rain = 0
KLO1 240039Z 18014G21KT 31/04 A2971 RMK A01 T03070043  RH  019%=      5-min Rain = 0
KLO1 240040Z 18018KT 31/04 A2971 RMK A01 T03070043  RH  019%=      5-min Rain = 0
KLO1 240041Z 19016KT 31/04 A2971 RMK A01 T03070042  RH  019%=      5-min Rain = 0
KLO1 240042Z 19017KT 31/04 A2972 RMK A01 T03080042  RH  019%=      5-min Rain = 0
KLO1 240043Z 19018KT 31/04 A2972 RMK A01 T03080043  RH  019%=      5-min Rain = 0
KLO1 240044Z 19017G24KT 31/04 A2972 RMK A01 T03080044  RH  019%=      5-min Rain = 0
KLO1 240045Z 19020G25KT 31/04 A2972 RMK A01 T03070043  RH  019%=      5-min Rain = 0
KLO1 240046Z 19017KT 31/04 A2972 RMK A01 T03070041  RH  019%=      5-min Rain = 0
KLO1 240047Z 19019KT 31/04 A2972 RMK A01 T03070042  RH  019%=      5-min Rain = 0
KLO1 240048Z 19016KT 31/04 A2972 RMK A01 T03070041  RH  019%=      5-min Rain = 0
KLO1 240049Z 19016G21KT 31/04 A2972 RMK A01 T03080041  RH  018%=      5-min Rain = 0
KLO1 240050Z 20018KT 31/04 A2973 RMK A01 T03080040  RH  018%=      5-min Rain = 0
KLO1 240051Z 21017KT 31/04 A2973 RMK A01 T03080041  RH  018%=      5-min Rain = 0
KLO1 240052Z 21015KT 31/04 A2973 RMK A01 T03080042  RH  019%=      5-min Rain = 0
KLO1 240053Z 22014KT 31/04 A2973 RMK A01 T03080043  RH  019%=      5-min Rain = 0
KLO1 240054Z 21014KT 31/04 A2973 RMK A01 T03070044  RH  019%=      5-min Rain = 0
KLO1 240055Z 21011KT 31/05 A2973 RMK A01 T03070046  RH  019%=      5-min Rain = 0
KLO1 240056Z 21011KT 31/05 A2974 RMK A01 T03060047  RH  019%=      5-min Rain = 0
KLO1 240057Z 21011KT 31/05 A2974 RMK A01 T03060047  RH  019%=      5-min Rain = 0
KLO1 240058Z 21011KT 31/05 A2974 RMK A01 T03060047  RH  020%=      5-min Rain = 0
KLO1 240059Z 21010KT 31/05 A2974 RMK A01 T03050048  RH  020%=      5-min Rain = 0
KLO1 240100Z 20010KT 30/05 A2974 RMK A01 T03040047  RH  020%=      5-min Rain = 0
KLO1 240101Z 20009KT 31/05 A2974 RMK A01 T03050047  RH  020%=      5-min Rain = 0
KLO1 240102Z 20008KT 30/05 A2974 RMK A01 T03040047  RH  020%=      5-min Rain = 0
KLO1 240103Z 21009KT 30/05 A2974 RMK A01 T03040048  RH  020%=      5-min Rain = 0
KLO1 240104Z 21012KT 30/05 A2974 RMK A01 T03040046  RH  020%=      5-min Rain = 0
KLO1 240105Z 21011KT 30/04 A2974 RMK A01 T03040043  RH  019%=      5-min Rain = 0
KLO1 240106Z 19009KT 31/04 A2974 RMK A01 T03050043  RH  019%=      5-min Rain = 0
KLO1 240107Z 18008KT 31/05 A2974 RMK A01 T03050045  RH  019%=      5-min Rain = 0
KLO1 240108Z 19008KT 31/05 A2974 RMK A01 T03050046  RH  019%=      5-min Rain = 0
KLO1 240109Z 19009KT 30/05 A2974 RMK A01 T03040045  RH  019%=      5-min Rain = 0
KLO1 240110Z 18010KT 30/04 A2975 RMK A01 T03040043  RH  019%=      5-min Rain = 0
KLO1 240111Z 17014KT 30/04 A2975 RMK A01 T03040044  RH  019%=      5-min Rain = 0
KLO1 240112Z 17013KT 30/04 A2975 RMK A01 T03040043  RH  019%=      5-min Rain = 0
KLO1 240113Z 18013KT 30/04 A2975 RMK A01 T03040043  RH  019%=      5-min Rain = 0
KLO1 240114Z 17014KT 30/04 A2975 RMK A01 T03030043  RH  019%=      5-min Rain = 0
KLO1 240115Z 17015KT 30/04 A2974 RMK A01 T03020043  RH  019%=      5-min Rain = 0
KLO1 240116Z 16012KT 30/04 A2974 RMK A01 T03010044  RH  020%=      5-min Rain = 0
KLO1 240117Z 16012KT 30/05 A2974 RMK A01 T03000045  RH  020%=      5-min Rain = 0
KLO1 240118Z 16013KT 30/05 A2974 RMK A01 T03000046  RH  020%=      5-min Rain = 0
KLO1 240119Z 16013KT 30/05 A2974 RMK A01 T02990047  RH  020%=      5-min Rain = 0
KLO1 240120Z 17013KT 30/05 A2975 RMK A01 T02990048  RH  020%=      5-min Rain = 0
KLO1 240121Z 16014KT 30/05 A2975 RMK A01 T02990048  RH  020%=      5-min Rain = 0
KLO1 240122Z 16014KT 30/05 A2975 RMK A01 T02980049  RH  021%=      5-min Rain = 0
KLO1 240123Z 16012KT 30/05 A2975 RMK A01 T02980051  RH  021%=      5-min Rain = 0
KLO1 240124Z 16012KT 30/06 A2975 RMK A01 T02970055  RH  022%=      5-min Rain = 0
KLO1 240125Z 15014KT 30/06 A2975 RMK A01 T02960056  RH  022%=      5-min Rain = 0
KLO1 240126Z 16014KT 30/06 A2975 RMK A01 T02950057  RH  022%=      5-min Rain = 0
KLO1 240127Z 17014KT 29/06 A2975 RMK A01 T02930057  RH  022%=      5-min Rain = 0
KLO1 240128Z 17011KT 29/06 A2975 RMK A01 T02930056  RH  022%=      5-min Rain = 0
KLO1 240129Z 18010KT 29/06 A2975 RMK A01 T02930055  RH  022%=      5-min Rain = 0
KLO1 240130Z 18015KT 29/05 A2975 RMK A01 T02930053  RH  022%=      5-min Rain = 0
KLO1 240131Z 18015KT 29/05 A2975 RMK A01 T02930049  RH  021%=      5-min Rain = 0
KLO1 240132Z 18013KT 29/05 A2975 RMK A01 T02920049  RH  021%=      5-min Rain = 0
KLO1 240133Z 18013KT 29/05 A2975 RMK A01 T02920051  RH  022%=      5-min Rain = 0
KLO1 240134Z 18013KT 29/05 A2975 RMK A01 T02910051  RH  022%=      5-min Rain = 0
KLO1 240135Z 19013KT 29/05 A2975 RMK A01 T02900052  RH  022%=      5-min Rain = 0
KLO1 240136Z 18014KT 29/05 A2975 RMK A01 T02900052  RH  022%=      5-min Rain = 0
KLO1 240137Z 18014KT 29/05 A2975 RMK A01 T02890052  RH  022%=      5-min Rain = 0
KLO1 240138Z 18012KT 29/05 A2974 RMK A01 T02890053  RH  022%=      5-min Rain = 0
KLO1 240139Z 17013KT 29/05 A2974 RMK A01 T02880054  RH  023%=      5-min Rain = 0
KLO1 240140Z 17013KT 29/05 A2974 RMK A01 T02880054  RH  023%=      5-min Rain = 0
KLO1 240141Z 18015KT 29/05 A2974 RMK A01 T02870054  RH  023%=      5-min Rain = 0
KLO1 240142Z 17013KT 29/05 A2974 RMK A01 T02870054  RH  023%=      5-min Rain = 0
KLO1 240143Z 18012KT 29/06 A2974 RMK A01 T02860055  RH  023%=      5-min Rain = 0
KLO1 240144Z 17013KT 29/06 A2974 RMK A01 T02860056  RH  023%=      5-min Rain = 0
KLO1 240145Z 17011KT 29/06 A2974 RMK A01 T02860056  RH  023%=      5-min Rain = 0
KLO1 240146Z 18008KT 29/06 A2974 RMK A01 T02850057  RH  024%=      5-min Rain = 0
KLO1 240147Z 18009KT 29/06 A2974 RMK A01 T02850057  RH  024%=      5-min Rain = 0
KLO1 240148Z 19011KT 28/06 A2974 RMK A01 T02840057  RH  024%=      5-min Rain = 0
KLO1 240149Z 18012KT 28/06 A2974 RMK A01 T02840057  RH  024%=      5-min Rain = 0
KLO1 240150Z 18013KT 28/06 A2974 RMK A01 T02830058  RH  024%=      5-min Rain = 0
KLO1 240151Z 17013KT 28/06 A2974 RMK A01 T02820058  RH  024%=      5-min Rain = 0
KLO1 240152Z 17015KT 28/06 A2974 RMK A01 T02810058  RH  024%=      5-min Rain = 0
KLO1 240153Z 17012KT 28/06 A2974 RMK A01 T02800059  RH  025%=      5-min Rain = 0
KLO1 240154Z 17012KT 28/06 A2974 RMK A01 T02790060  RH  025%=      5-min Rain = 0
KLO1 240155Z 18014KT 28/06 A2974 RMK A01 T02780060  RH  025%=      5-min Rain = 0
KLO1 240156Z 18012KT 28/06 A2974 RMK A01 T02770060  RH  025%=      5-min Rain = 0
KLO1 240157Z 17015KT 28/06 A2974 RMK A01 T02770060  RH  025%=      5-min Rain = 0
KLO1 240158Z 18016KT 28/06 A2974 RMK A01 T02760060  RH  025%=      5-min Rain = 0
KLO1 240159Z 17015KT 28/06 A2974 RMK A01 T02760061  RH  026%=      5-min Rain = 0
KLO1 240200Z 17016KT 28/06 A2974 RMK A01 T02750061  RH  026%=      5-min Rain = 0
KLO1 240201Z 18018KT 27/06 A2974 RMK A01 T02740060  RH  026%=      5-min Rain = 0
KLO1 240202Z 17014KT 27/06 A2975 RMK A01 T02740061  RH  026%=      5-min Rain = 0
KLO1 240203Z 18016KT 27/06 A2975 RMK A01 T02740061  RH  026%=      5-min Rain = 0
KLO1 240204Z 17015KT 27/06 A2975 RMK A01 T02730060  RH  026%=      5-min Rain = 0
KLO1 240205Z 18013KT 27/06 A2975 RMK A01 T02730060  RH  026%=      5-min Rain = 0
KLO1 240206Z 18014KT 27/06 A2975 RMK A01 T02730061  RH  026%=      5-min Rain = 0
KLO1 240207Z 18014KT 27/06 A2975 RMK A01 T02730061  RH  026%=      5-min Rain = 0
KLO1 240208Z 18014KT 27/06 A2975 RMK A01 T02730060  RH  026%=      5-min Rain = 0
KLO1 240209Z 18012KT 27/06 A2976 RMK A01 T02720060  RH  026%=      5-min Rain = 0
KLO1 240210Z 18011KT 27/06 A2976 RMK A01 T02720061  RH  026%=      5-min Rain = 0
KLO1 240211Z 18011KT 27/06 A2975 RMK A01 T02710061  RH  026%=      5-min Rain = 0
KLO1 240212Z 18011KT 27/06 A2975 RMK A01 T02710060  RH  026%=      5-min Rain = 0
KLO1 240213Z 19012KT 27/06 A2975 RMK A01 T02710060  RH  026%=      5-min Rain = 0
KLO1 240214Z 18013KT 27/06 A2975 RMK A01 T02710059  RH  026%=      5-min Rain = 0
KLO1 240215Z 18011KT 27/06 A2975 RMK A01 T02710059  RH  026%=      5-min Rain = 0
KLO1 240216Z 18012KT 27/06 A2975 RMK A01 T02710059  RH  026%=      5-min Rain = 0
KLO1 240217Z 18012KT 27/06 A2975 RMK A01 T02700059  RH  026%=      5-min Rain = 0
KLO1 240218Z 17011KT 27/06 A2975 RMK A01 T02700059  RH  026%=      5-min Rain = 0
KLO1 240219Z 18011KT 27/06 A2975 RMK A01 T02690058  RH  026%=      5-min Rain = 0
KLO1 240220Z 18012KT 27/06 A2975 RMK A01 T02690058  RH  026%=      5-min Rain = 0
KLO1 240221Z 18011KT 27/06 A2975 RMK A01 T02690058  RH  026%=      5-min Rain = 0
KLO1 240222Z 18013KT 27/06 A2975 RMK A01 T02680058  RH  026%=      5-min Rain = 0
KLO1 240223Z 19010KT 27/06 A2975 RMK A01 T02680058  RH  026%=      5-min Rain = 0
KLO1 240224Z 18011KT 27/06 A2975 RMK A01 T02670058  RH  026%=      5-min Rain = 0
KLO1 240225Z 19010KT 27/06 A2975 RMK A01 T02670059  RH  026%=      5-min Rain = 0
KLO1 240226Z 19010KT 27/06 A2975 RMK A01 T02660058  RH  026%=      5-min Rain = 0
KLO1 240227Z 19010KT 27/06 A2975 RMK A01 T02660058  RH  026%=      5-min Rain = 0
KLO1 240228Z 19008KT 27/06 A2975 RMK A01 T02650058  RH  027%=      5-min Rain = 0
KLO1 240229Z 19011KT 27/06 A2975 RMK A01 T02650059  RH  027%=      5-min Rain = 0
KLO1 240230Z 19010KT 26/06 A2975 RMK A01 T02640058  RH  027%=      5-min Rain = 0
KLO1 240231Z 19010KT 26/06 A2975 RMK A01 T02640058  RH  027%=      5-min Rain = 0
KLO1 240232Z 19010KT 26/06 A2975 RMK A01 T02640058  RH  027%=      5-min Rain = 0
KLO1 240233Z 20009KT 26/06 A2975 RMK A01 T02640058  RH  027%=      5-min Rain = 0
KLO1 240234Z 19010KT 26/06 A2975 RMK A01 T02640058  RH  027%=      5-min Rain = 0
KLO1 240235Z 20010KT 27/06 A2975 RMK A01 T02650059  RH  027%=      5-min Rain = 0
KLO1 240236Z 20010KT 26/06 A2976 RMK A01 T02640059  RH  027%=      5-min Rain = 0
KLO1 240237Z 20010KT 26/06 A2976 RMK A01 T02640059  RH  027%=      5-min Rain = 0
KLO1 240238Z 20010KT 26/06 A2976 RMK A01 T02630059  RH  027%=      5-min Rain = 0
KLO1 240239Z 20009KT 26/06 A2976 RMK A01 T02630059  RH  027%=      5-min Rain = 0
KLO1 240240Z 20009KT 26/06 A2976 RMK A01 T02630059  RH  027%=      5-min Rain = 0
KLO1 240241Z 20009KT 26/06 A2976 RMK A01 T02630059  RH  027%=      5-min Rain = 0
KLO1 240242Z 20008KT 26/06 A2976 RMK A01 T02630060  RH  027%=      5-min Rain = 0
KLO1 240243Z 20008KT 26/06 A2976 RMK A01 T02620060  RH  027%=      5-min Rain = 0
KLO1 240244Z 20008KT 26/06 A2976 RMK A01 T02620060  RH  027%=      5-min Rain = 0
KLO1 240245Z 20007KT 26/06 A2976 RMK A01 T02620060  RH  028%=      5-min Rain = 0
KLO1 240246Z 21006KT 26/06 A2976 RMK A01 T02610060  RH  028%=      5-min Rain = 0
KLO1 240247Z 21006KT 26/06 A2976 RMK A01 T02610061  RH  028%=      5-min Rain = 0
KLO1 240248Z 20006KT 26/06 A2976 RMK A01 T02600060  RH  028%=      5-min Rain = 0
KLO1 240249Z 20007KT 26/06 A2976 RMK A01 T02600060  RH  028%=      5-min Rain = 0
KLO1 240250Z 20006KT 26/06 A2976 RMK A01 T02600060  RH  028%=      5-min Rain = 0
KLO1 240251Z 20006KT 26/06 A2976 RMK A01 T02600060  RH  028%=      5-min Rain = 0
KLO1 240252Z 19007KT 26/06 A2976 RMK A01 T02590060  RH  028%=      5-min Rain = 0
KLO1 240253Z 19007KT 26/06 A2976 RMK A01 T02590060  RH  028%=      5-min Rain = 0
KLO1 240254Z 19007KT 26/06 A2976 RMK A01 T02590060  RH  028%=      5-min Rain = 0
KLO1 240255Z 19007KT 26/06 A2976 RMK A01 T02590060  RH  028%=      5-min Rain = 0
KLO1 240256Z 20006KT 26/06 A2976 RMK A01 T02590060  RH  028%=      5-min Rain = 0
KLO1 240257Z 20007KT 26/06 A2976 RMK A01 T02580061  RH  028%=      5-min Rain = 0
KLO1 240258Z 20006KT 26/06 A2976 RMK A01 T02580061  RH  028%=      5-min Rain = 0
KLO1 240259Z 20006KT 26/06 A2977 RMK A01 T02580062  RH  028%=      5-min Rain = 0
KLO1 240300Z 20006KT 26/06 A2977 RMK A01 T02580062  RH  029%=      5-min Rain = 0
KLO1 240301Z 20006KT 26/06 A2977 RMK A01 T02570062  RH  029%=      5-min Rain = 0
KLO1 240302Z 20006KT 26/06 A2977 RMK A01 T02570062  RH  029%=      5-min Rain = 0
KLO1 240303Z 20006KT 26/06 A2977 RMK A01 T02560062  RH  029%=      5-min Rain = 0
KLO1 240304Z 20005KT 26/06 A2977 RMK A01 T02560062  RH  029%=      5-min Rain = 0
KLO1 240305Z 20005KT 26/06 A2977 RMK A01 T02560063  RH  029%=      5-min Rain = 0
KLO1 240306Z 20005KT 26/06 A2977 RMK A01 T02550063  RH  029%=      5-min Rain = 0
KLO1 240307Z 20004KT 25/06 A2977 RMK A01 T02540063  RH  029%=      5-min Rain = 0
KLO1 240308Z 20004KT 25/06 A2977 RMK A01 T02540064  RH  030%=      5-min Rain = 0
KLO1 240309Z 21004KT 25/06 A2977 RMK A01 T02530063  RH  030%=      5-min Rain = 0
KLO1 240310Z 21004KT 25/06 A2977 RMK A01 T02530064  RH  030%=      5-min Rain = 0
KLO1 240311Z 21003KT 25/06 A2977 RMK A01 T02530064  RH  030%=      5-min Rain = 0
KLO1 240312Z 20003KT 25/06 A2977 RMK A01 T02520064  RH  030%=      5-min Rain = 0
KLO1 240313Z 20003KT 25/06 A2977 RMK A01 T02520064  RH  030%=      5-min Rain = 0
KLO1 240314Z 20003KT 25/07 A2978 RMK A01 T02520065  RH  030%=      5-min Rain = 0
KLO1 240315Z 19003KT 25/06 A2978 RMK A01 T02510064  RH  030%=      5-min Rain = 0
KLO1 240316Z 19003KT 25/06 A2978 RMK A01 T02510064  RH  030%=      5-min Rain = 0
KLO1 240317Z 19003KT 25/07 A2978 RMK A01 T02500065  RH  030%=      5-min Rain = 0
KLO1 240318Z 18003KT 25/06 A2978 RMK A01 T02490064  RH  030%=      5-min Rain = 0
KLO1 240319Z 19003KT 25/06 A2978 RMK A01 T02490064  RH  030%=      5-min Rain = 0
KLO1 240320Z 20003KT 25/06 A2978 RMK A01 T02480064  RH  031%=      5-min Rain = 0
KLO1 240321Z 20004KT 25/06 A2978 RMK A01 T02490064  RH  031%=      5-min Rain = 0
KLO1 240322Z 19004KT 25/06 A2978 RMK A01 T02490063  RH  030%=      5-min Rain = 0
KLO1 240323Z 19003KT 25/06 A2978 RMK A01 T02490063  RH  030%=      5-min Rain = 0
KLO1 240324Z 20003KT 25/06 A2978 RMK A01 T02500063  RH  030%=      5-min Rain = 0
KLO1 240325Z 20003KT 25/06 A2978 RMK A01 T02500063  RH  030%=      5-min Rain = 0
KLO1 240326Z 19004KT 25/06 A2978 RMK A01 T02500064  RH  030%=      5-min Rain = 0
KLO1 240327Z 19004KT 25/06 A2979 RMK A01 T02500064  RH  030%=      5-min Rain = 0
KLO1 240328Z 20004KT 25/06 A2979 RMK A01 T02500064  RH  030%=      5-min Rain = 0
KLO1 240329Z 20005KT 25/07 A2979 RMK A01 T02500065  RH  031%=      5-min Rain = 0
KLO1 240330Z 19004KT 25/06 A2979 RMK A01 T02500064  RH  030%=      5-min Rain = 0
KLO1 240331Z 19005KT 25/06 A2979 RMK A01 T02500064  RH  030%=      5-min Rain = 0
KLO1 240332Z 19005KT 25/07 A2979 RMK A01 T02500065  RH  031%=      5-min Rain = 0
KLO1 240333Z 20006KT 25/07 A2979 RMK A01 T02500065  RH  031%=      5-min Rain = 0
KLO1 240334Z 19006KT 25/07 A2979 RMK A01 T02500065  RH  031%=      5-min Rain = 0
KLO1 240335Z 19007KT 25/07 A2979 RMK A01 T02500066  RH  031%=      5-min Rain = 0
KLO1 240336Z 19007KT 25/07 A298 RMK A01 T02510066  RH  031%=      5-min Rain = 0
KLO1 240337Z 19008KT 25/07 A298 RMK A01 T02530067  RH  030%=      5-min Rain = 0
KLO1 240338Z 19008KT 25/07 A298 RMK A01 T02540067  RH  030%=      5-min Rain = 0
KLO1 240339Z 19008KT 26/07 A298 RMK A01 T02550069  RH  030%=      5-min Rain = 0
KLO1 240340Z 18008KT 26/07 A298 RMK A01 T02570070  RH  030%=      5-min Rain = 0
KLO1 240341Z 18008KT 26/07 A298 RMK A01 T02580071  RH  030%=      5-min Rain = 0
KLO1 240342Z 18008KT 26/07 A298 RMK A01 T02590072  RH  030%=      5-min Rain = 0
KLO1 240343Z 18007KT 26/07 A298 RMK A01 T02580072  RH  031%=      5-min Rain = 0
KLO1 240344Z 18008KT 26/07 A298 RMK A01 T02590074  RH  031%=      5-min Rain = 0
KLO1 240345Z 18008KT 26/08 A298 RMK A01 T02590075  RH  031%=      5-min Rain = 0
KLO1 240346Z 19011KT 26/08 A298 RMK A01 T02590078  RH  032%=      5-min Rain = 0
KLO1 240347Z 18012KT 26/08 A298 RMK A01 T02610082  RH  032%=      5-min Rain = 0
KLO1 240348Z 18013KT 26/09 A298 RMK A01 T02620085  RH  033%=      5-min Rain = 0
KLO1 240349Z 18014KT 26/09 A2981 RMK A01 T02640091  RH  034%=      5-min Rain = 0
KLO1 240350Z 18014KT 27/10 A2981 RMK A01 T02660095  RH  034%=      5-min Rain = 0
KLO1 240351Z 18015KT 27/10 A2981 RMK A01 T02680098  RH  034%=      5-min Rain = 0
KLO1 240352Z 18012KT 27/10 A2981 RMK A01 T02690099  RH  034%=      5-min Rain = 0
KLO1 240353Z 18012KT 27/10 A2981 RMK A01 T02690099  RH  034%=      5-min Rain = 0
KLO1 240354Z 17011KT 27/10 A2981 RMK A01 T02690100  RH  035%=      5-min Rain = 0
KLO1 240355Z 17013KT 27/10 A2981 RMK A01 T02690103  RH  035%=      5-min Rain = 0
KLO1 240356Z 17013KT 27/11 A2981 RMK A01 T02700106  RH  036%=      5-min Rain = 0
KLO1 240357Z 17014KT 27/11 A2981 RMK A01 T02710108  RH  036%=      5-min Rain = 0
KLO1 240358Z 17012KT 27/11 A2982 RMK A01 T02710110  RH  037%=      5-min Rain = 0
KLO1 240359Z 17012KT 27/11 A2982 RMK A01 T02710111  RH  037%=      5-min Rain = 0
KLO1 240400Z 16012KT 27/11 A2982 RMK A01 T02710112  RH  037%=      5-min Rain = 0
KLO1 240401Z 15012KT 27/11 A2982 RMK A01 T02720112  RH  037%=      5-min Rain = 0
KLO1 240402Z 15010KT 27/11 A2983 RMK A01 T02720112  RH  037%=      5-min Rain = 0
KLO1 240403Z 15012KT 27/11 A2983 RMK A01 T02720113  RH  037%=      5-min Rain = 0
KLO1 240404Z 14011KT 27/11 A2984 RMK A01 T02720112  RH  037%=      5-min Rain = 0
KLO1 240405Z 12013G18KT 27/11 A2984 RMK A01 T02720112  RH  037%=      5-min Rain = 0
KLO1 240406Z 11009G14KT 27/11 A2984 RMK A01 T02710110  RH  037%=      5-min Rain = 0
KLO1 240407Z 04009KT 27/08 A2984 RMK A01 T02690084  RH  031%=      5-min Rain = 0
KLO1 240408Z 05009KT 26/07 A2985 RMK A01 T02620073  RH  030%=      5-min Rain = 0
KLO1 240409Z 04009KT 26/07 A2985 RMK A01 T02570070  RH  030%=      5-min Rain = 0
KLO1 240410Z 03010KT 25/07 A2984 RMK A01 T02540070  RH  031%=      5-min Rain = 0
KLO1 240411Z 04010KT 25/07 A2984 RMK A01 T02520071  RH  032%=      5-min Rain = 0
KLO1 240412Z 04008KT 25/07 A2984 RMK A01 T02500072  RH  032%=      5-min Rain = 0
KLO1 240413Z 04005KT 25/07 A2985 RMK A01 T02500071  RH  032%=      5-min Rain = 0
KLO1 240414Z 06006KT 25/07 A2985 RMK A01 T02500071  RH  032%=      5-min Rain = 0
KLO1 240415Z 09003KT 25/07 A2985 RMK A01 T02510071  RH  032%=      5-min Rain = 0
KLO1 240416Z 07004KT 25/07 A2985 RMK A01 T02520071  RH  032%=      5-min Rain = 0
KLO1 240417Z 08005KT 25/07 A2985 RMK A01 T02520072  RH  032%=      5-min Rain = 0
KLO1 240418Z 09007KT 25/07 A2986 RMK A01 T02510072  RH  032%=      5-min Rain = 0
KLO1 240419Z 08008KT 25/08 A2986 RMK A01 T02530076  RH  032%=      5-min Rain = 0
KLO1 240420Z 10009KT 26/08 A2986 RMK A01 T02560076  RH  032%=      5-min Rain = 0
KLO1 240421Z 13005KT 26/07 A2986 RMK A01 T02570072  RH  031%=      5-min Rain = 0
KLO1 240422Z 13005KT 26/07 A2986 RMK A01 T02560071  RH  031%=      5-min Rain = 0
KLO1 240423Z 11006KT 26/07 A2986 RMK A01 T02560074  RH  031%=      5-min Rain = 0
KLO1 240424Z 12005KT 26/08 A2986 RMK A01 T02550075  RH  032%=      5-min Rain = 0
KLO1 240425Z 08004KT 26/08 A2986 RMK A01 T02550075  RH  032%=      5-min Rain = 0
KLO1 240426Z 09007G15KT 26/08 A2986 RMK A01 T02550077  RH  032%=      5-min Rain = 0
KLO1 240427Z 09014KT 26/09 A2986 RMK A01 T02570085  RH  034%=      5-min Rain = 0
KLO1 240428Z 08011KT 26/09 A2986 RMK A01 T02620089  RH  034%=      5-min Rain = 0
KLO1 240429Z 07011KT 26/09 A2986 RMK A01 T02640090  RH  033%=      5-min Rain = 0
KLO1 240430Z 10013KT 27/09 A2987 RMK A01 T02660089  RH  033%=      5-min Rain = 0
KLO1 240431Z 10012KT 27/09 A2987 RMK A01 T02670090  RH  033%=      5-min Rain = 0
KLO1 240432Z 08011KT 27/09 A2987 RMK A01 T02670088  RH  032%=      5-min Rain = 0
KLO1 240433Z 07010KT 27/08 A2987 RMK A01 T02670084  RH  031%=      5-min Rain = 0
KLO1 240434Z 08009KT 27/08 A2987 RMK A01 T02660084  RH  032%=      5-min Rain = 0
KLO1 240435Z 09009KT 27/10 A2987 RMK A01 T02660098  RH  035%=      5-min Rain = 0
KLO1 240436Z 08010G16KT 27/10 A2987 RMK A01 T02660097  RH  034%=      5-min Rain = 0
KLO1 240437Z 07011G16KT 27/09 A2987 RMK A01 T02660093  RH  034%=      5-min Rain = 0
KLO1 240438Z 05012KT 27/09 A2987 RMK A01 T02660090  RH  033%=      5-min Rain = 0
KLO1 240439Z 04011KT 27/10 A2987 RMK A01 T02660096  RH  034%=      5-min Rain = 0
KLO1 240440Z 05010KT 26/11 A2987 RMK A01 T02600113  RH  040%=      5-min Rain = 0
KLO1 240441Z 06010KT 25/11 A2987 RMK A01 T02500114  RH  043%=      5-min Rain = 0
KLO1 240442Z 06012KT 24/12 A2987 RMK A01 T02430117  RH  045%=      5-min Rain = 0
KLO1 240443Z 07013KT 24/12 A2987 RMK A01 T02390118  RH  047%=      5-min Rain = 0
KLO1 240444Z 07013KT 24/11 A2988 RMK A01 T02370114  RH  046%=      5-min Rain = 0
KLO1 240445Z 08011KT 24/11 A2988 RMK A01 T02380113  RH  045%=      5-min Rain = 0
KLO1 240446Z 08008KT 24/11 A2987 RMK A01 T02380112  RH  045%=      5-min Rain = 0
KLO1 240447Z 08004G9KT 24/11 A2987 RMK A01 T02390113  RH  045%=      5-min Rain = 0
KLO1 240448Z 07008G14KT 24/11 A2987 RMK A01 T02390113  RH  045%=      5-min Rain = 0
KLO1 240449Z 07012KT 24/11 A2987 RMK A01 T02390112  RH  045%=      5-min Rain = 0
KLO1 240450Z 07009KT 24/12 A2987 RMK A01 T02390116  RH  046%=      5-min Rain = 0
KLO1 240451Z 07012KT 24/12 A2987 RMK A01 T02390117  RH  046%=      5-min Rain = 0
KLO1 240452Z 07011KT 24/12 A2988 RMK A01 T02390117  RH  046%=      5-min Rain = 0
KLO1 240453Z 06010KT 24/12 A2988 RMK A01 T02380117  RH  047%=      5-min Rain = 0
KLO1 240454Z 06009KT 24/12 A2988 RMK A01 T02370119  RH  047%=      5-min Rain = 0
KLO1 240455Z 06009KT 24/12 A2988 RMK A01 T02350120  RH  048%=      5-min Rain = 0
KLO1 240456Z 07009KT 23/12 A2988 RMK A01 T02340119  RH  049%=      5-min Rain = 0
KLO1 240457Z 07008KT 23/12 A2988 RMK A01 T02330118  RH  048%=      5-min Rain = 0
KLO1 240458Z 07008KT 23/12 A2988 RMK A01 T02330118  RH  049%=      5-min Rain = 0
KLO1 240459Z 07007KT 23/12 A2988 RMK A01 T02330119  RH  049%=      5-min Rain = 0

Page generated in 0.1065 seconds.